Data for 11/19/2009

Time Sea-Level Adjusted Pressure Absolute Pressure Temperature Relative Humidity Dew Point Precipitation   
(mb) (inHg) (mb) (inHg) (C) (F) (%) (C) (F) (mm) (in)
00:01 1022 30.18 851 25.13 -6.1 21 83 -8.5 16.8 -5.961 -0.235
00:02 1022 30.18 851 25.13 -6.6 20.2 76 -10.2 13.7 -6.471 -0.255
00:03 1022 30.18 851 25.13 -7.6 18.4 73 -11.6 11 -7.56 -0.298
00:04 1022 30.18 851 25.13 -8.7 16.3 77 -12.1 10.2 -8.68 -0.342
00:05 1022 30.18 851 25.13 -9.6 14.7 77 -13 8.6 -9.41 -0.37
00:06 1022 30.18 851 25.13 -10.4 13.3 79 -13.3 8.1 -10.15 -0.4
00:07 1022 30.18 851 25.13 -10.9 12.4 83 -13.2 8.2 -10.57 -0.416
00:08 1022 30.18 851 25.13 -11 12.2 89 -12.5 9.4 -10.59 -0.417
00:09 1022 30.18 851 25.13 -10.7 12.7 93 -11.6 11 -10.32 -0.406
00:10 1022 30.18 851 25.13 -10.1 13.9 96 -10.6 13 -9.7 -0.382
00:11 1022 30.18 851 25.13 -9 15.8 97 -9.3 15.2 -8.71 -0.343
00:12 1022 30.18 851 25.13 -9.1 15.6 86 -11 12.2 -8.85 -0.348
00:13 1022 30.18 851 25.13 -9.6 14.8 88 -11.2 11.9 -9.33 -0.367
00:14 1022 30.18 852 25.16 -9.4 15.1 92 -10.5 13.1 -9.17 -0.361
00:15 1022 30.18 852 25.16 -8.8 16.1 96 -9.3 15.2 -8.61 -0.339
00:16 1022 30.18 852 25.16 -8.5 16.8 89 -10 14 -8.26 -0.325
00:17 1022 30.18 852 25.16 -8.7 16.4 85 -10.7 12.7 -8.52 -0.335
00:18 1022 30.18 852 25.16 -8.7 16.4 93 -9.6 14.8 -8.51 -0.335
00:19 1022 30.18 852 25.16 -7.7 18.1 96 -8.2 17.2 -7.6 -0.299
00:20 1022 30.18 852 25.16 -7 19.4 97 -7.4 18.8 -6.83 -0.269
00:21 1022 30.18 852 25.16 -6.3 20.7 96 -6.8 19.7 -6.019 -0.237
00:22 1022 30.18 852 25.16 -5.8 21.6 91 -7 19.4 -5.542 -0.218
00:23 1022 30.18 852 25.16 -6.2 20.8 74 -10.2 13.7 -6.097 -0.24
00:24 1022 30.18 852 25.16 -7.1 19.3 81 -9.8 14.3 -6.823 -0.269
00:25 1022 30.18 852 25.16 -7.7 18.2 78 -10.8 12.5 -7.34 -0.289
00:26 1022 30.18 852 25.16 -8.2 17.2 87 -10.1 13.9 -7.83 -0.308
00:27 1022 30.18 852 25.16 -8.4 16.9 84 -10.7 12.7 -7.97 -0.314
00:28 1022 30.18 852 25.16 -8.7 16.4 87 -10.5 13.2 -8.24 -0.324
00:29 1022 30.18 852 25.16 -8.8 16.2 84 -11 12.2 -8.42 -0.331
00:30 1022 30.18 852 25.16 -9.1 15.6 86 -11 12.1 -8.74 -0.344
00:31 1022 30.18 852 25.16 -9.2 15.4 88 -10.9 12.4 -8.82 -0.347
00:32 1022 30.18 852 25.16 -9.4 15.1 83 -11.8 10.7 -9.02 -0.355
00:33 1022 30.18 852 25.16 -9.7 14.5 88 -11.4 11.5 -9.32 -0.367
00:34 1022 30.18 852 25.16 -9.6 14.7 92 -10.6 12.9 -9.14 -0.36
00:35 1022 30.18 852 25.16 -9 15.7 95 -9.7 14.5 -8.68 -0.342
00:36 1022 30.18 852 25.16 -8.6 16.4 92 -9.7 14.5 -8.37 -0.33
00:37 1022 30.18 852 25.16 -8.5 16.8 91 -9.7 14.6 -8.24 -0.324
00:38 1022 30.18 852 25.16 -8.3 17.1 91 -9.5 14.9 -8.1 -0.319
00:39 1022 30.18 852 25.16 -8.2 17.3 88 -9.7 14.5 -7.96 -0.313
00:40 1022 30.18 852 25.16 -8.3 17 84 -10.5 13.1 -8.1 -0.319
00:41 1022 30.18 852 25.16 -8.8 16.2 81 -11.5 11.4 -8.57 -0.337
00:42 1022 30.18 852 25.16 -9.4 15.1 82 -11.9 10.6 -9.16 -0.361
00:43 1022 30.18 852 25.16 -9.8 14.4 86 -11.6 11.1 -9.57 -0.377
00:44 1022 30.18 852 25.16 -9.8 14.3 89 -11.4 11.6 -9.64 -0.38
00:45 1022 30.18 852 25.16 -9.9 14.2 87 -11.7 10.9 -9.68 -0.381
00:46 1022 30.18 852 25.16 -10.1 13.9 88 -11.7 11 -9.87 -0.389
00:47 1022 30.18 852 25.16 -10.2 13.6 84 -12.5 9.5 -10.08 -0.397
00:48 1022 30.18 852 25.16 -10.6 12.8 85 -12.6 9.2 -10.46 -0.412
00:49 1022 30.18 852 25.16 -10.9 12.4 87 -12.6 9.3 -10.72 -0.422
00:50 1022 30.18 852 25.16 -11.1 12.1 88 -12.7 9.2 -10.8 -0.425
00:51 1022 30.18 852 25.16 -11.1 12.1 89 -12.5 9.5 -10.85 -0.427
00:52 1022 30.18 852 25.16 -10.9 12.4 93 -11.8 10.7 -10.59 -0.417
00:53 1022 30.18 852 25.16 -10.7 12.7 88 -12.3 9.8 -10.53 -0.415
00:54 1022 30.18 852 25.16 -11.1 12 83 -13.5 7.6 -10.89 -0.429
00:55 1022 30.18 852 25.16 -11.5 11.3 86 -13.5 7.8 -11.22 -0.442
00:56 1022 30.18 852 25.16 -11.7 11 88 -13.3 8.1 -11.26 -0.443
00:57 1022 30.18 852 25.16 -11.8 10.7 86 -13.7 7.4 -11.41 -0.449
00:58 1022 30.18 852 25.16 -12.1 10.3 86 -13.9 7 -11.64 -0.458
00:59 1022 30.18 852 25.16 -11.9 10.7 93 -12.7 9.1 -11.53 -0.454
01:00 1022 30.18 852 25.16 -11.2 11.9 97 -11.6 11.1 -10.92 -0.43
01:01 1022 30.18 852 25.16 -9.5 14.9 99 -9.7 14.6 -9.24 -0.364
01:02 1022 30.18 852 25.16 -8 17.6 100 -8.1 17.5 -7.7 -0.303
01:03 1022 30.18 852 25.16 -7.2 19 99 -7.4 18.7 -6.936 -0.273
01:04 1022 30.18 851 25.13 -6.9 19.6 96 -7.4 18.6 -6.663 -0.262
01:05 1022 30.18 851 25.13 -7 19.4 86 -9 15.7 -6.873 -0.271
01:06 1022 30.18 851 25.13 -7.6 18.3 80 -10.4 13.2 -7.45 -0.293
01:07 1022 30.18 851 25.13 -8.2 17.3 82 -10.8 12.6 -8.04 -0.317
01:08 1022 30.18 851 25.13 -8.8 16.2 82 -11.4 11.5 -8.57 -0.337
01:09 1022 30.18 851 25.13 -9.4 15.2 80 -12.2 10.1 -9.14 -0.36
01:10 1022 30.18 851 25.13 -10 14 80 -12.8 9 -9.78 -0.385
01:11 1022 30.18 851 25.13 -10.7 12.8 79 -13.6 7.6 -10.45 -0.411
01:12 1022 30.18 851 25.13 -11.2 11.8 84 -13.5 7.8 -10.88 -0.428
01:13 1022 30.18 851 25.13 -11.5 11.4 84 -13.7 7.4 -11.1 -0.437
01:14 1022 30.18 851 25.13 -11.7 11 84 -13.8 7.1 -11.33 -0.446
01:15 1022 30.18 851 25.13 -12 10.4 84 -14.2 6.5 -11.6 -0.457
01:16 1022 30.18 851 25.13 -12.1 10.3 89 -13.5 7.7 -11.61 -0.457
01:17 1022 30.18 851 25.13 -11.7 11 95 -12.4 9.7 -11.19 -0.441
01:18 1022 30.18 851 25.13 -11.1 12 95 -11.8 10.8 -10.63 -0.419
01:19 1022 30.18 851 25.13 -10.9 12.5 93 -11.8 10.8 -10.46 -0.412
01:20 1022 30.18 851 25.13 -10.6 13 94 -11.4 11.5 -10.21 -0.402
01:21 1022 30.18 851 25.13 -10.4 13.4 91 -11.5 11.3 -10.03 -0.395
01:22 1022 30.18 852 25.16 -10.4 13.3 89 -11.9 10.6 -10.06 -0.396
01:23 1022 30.18 852 25.16 -10.5 13.1 88 -12.1 10.2 -10.13 -0.399
01:24 1022 30.18 852 25.16 -10.7 12.8 87 -12.5 9.5 -10.27 -0.404
01:25 1022 30.18 852 25.16 -10.8 12.5 86 -12.7 9.2 -10.42 -0.41
01:26 1022 30.18 852 25.16 -11 12.2 88 -12.6 9.4 -10.58 -0.417
01:27 1022 30.18 852 25.16 -10.9 12.4 91 -12.1 10.1 -10.54 -0.415
01:28 1022 30.18 852 25.16 -10.7 12.7 91 -11.9 10.6 -10.38 -0.409
01:29 1022 30.18 852 25.16 -10.6 12.9 90 -12 10.5 -10.29 -0.405
01:30 1022 30.18 852 25.16 -10.6 12.9 89 -12.1 10.1 -10.26 -0.404
01:31 1022 30.18 852 25.16 -10.7 12.7 86 -12.6 9.3 -10.38 -0.409
01:32 1022 30.18 852 25.16 -11 12.3 84 -13.2 8.2 -10.66 -0.42
01:33 1023 30.21 852 25.16 -11.4 11.5 83 -13.7 7.3 -11.04 -0.435
01:34 1022 30.18 852 25.16 -11.8 10.8 83 -14.2 6.5 -11.42 -0.45
01:35 1022 30.18 852 25.16 -12.1 10.2 86 -14 6.9 -11.69 -0.46
01:36 1023 30.21 852 25.16 -12.1 10.2 88 -13.7 7.3 -11.73 -0.462
01:37 1023 30.21 852 25.16 -12.1 10.3 89 -13.6 7.5 -11.68 -0.46
01:38 1023 30.21 852 25.16 -12.2 10.1 87 -13.9 7 -11.75 -0.463
01:39 1023 30.21 852 25.16 -12.2 10.1 88 -13.8 7.2 -11.75 -0.463
01:40 1023 30.21 852 25.16 -12.2 10.1 88 -13.8 7.2 -11.79 -0.464
01:41 1023 30.21 852 25.16 -12.3 9.9 88 -13.9 7.1 -11.82 -0.465
01:42 1022 30.18 852 25.16 -12.2 10.1 90 -13.5 7.7 -11.8 -0.465
01:43 1022 30.18 852 25.16 -12 10.5 91 -13.2 8.3 -11.57 -0.456
01:44 1022 30.18 852 25.16 -11.7 11 93 -12.6 9.2 -11.34 -0.446
01:45 1022 30.18 852 25.16 -11.4 11.5 93 -12.4 9.7 -11.07 -0.436
01:46 1022 30.18 852 25.16 -10.9 12.5 95 -11.5 11.3 -10.71 -0.422
01:47 1022 30.18 852 25.16 -9.8 14.3 97 -10.2 13.7 -9.83 -0.387
01:48 1022 30.18 852 25.16 -9.3 15.3 94 -10.1 13.9 -9.41 -0.37
01:49 1022 30.18 852 25.16 -9.9 14.3 79 -12.9 8.8 -10 -0.394
01:50 1022 30.18 852 25.16 -10.7 12.8 80 -13.4 7.8 -10.69 -0.421
01:51 1022 30.18 852 25.16 -11.2 11.8 84 -13.4 7.8 -11.1 -0.437
01:52 1023 30.21 852 25.16 -11.5 11.2 84 -13.8 7.2 -11.43 -0.45
01:53 1023 30.21 852 25.16 -11.8 10.7 83 -14.1 6.6 -11.57 -0.456
01:54 1023 30.21 852 25.16 -12.2 10 84 -14.4 6.1 -11.89 -0.468
01:55 1023 30.21 852 25.16 -12.5 9.5 84 -14.6 5.6 -12.14 -0.478
01:56 1023 30.21 852 25.16 -12.8 9 84 -14.9 5.2 -12.41 -0.489
01:57 1023 30.21 852 25.16 -13 8.6 87 -14.7 5.5 -12.58 -0.495
01:58 1023 30.21 852 25.16 -12.7 9.1 93 -13.6 7.5 -12.27 -0.483
01:59 1023 30.21 852 25.16 -12.3 10 93 -13.2 8.2 -11.89 -0.468
02:00 1023 30.21 852 25.16 -12.1 10.2 88 -13.7 7.4 -11.76 -0.463
02:01 1023 30.21 852 25.16 -12.2 10.1 88 -13.8 7.1 -11.9 -0.469
02:02 1023 30.21 852 25.16 -12.2 10.1 87 -13.9 7 -11.92 -0.469
02:03 1023 30.21 852 25.16 -12.3 9.9 88 -13.9 7 -12.04 -0.474
02:04 1023 30.21 852 25.16 -12.1 10.1 91 -13.4 7.9 -11.95 -0.47
02:05 1023 30.21 852 25.16 -12.2 10.1 85 -14.2 6.4 -12.03 -0.474
02:06 1023 30.21 852 25.16 -12.1 10.3 93 -12.9 8.7 -11.87 -0.467
02:07 1023 30.21 852 25.16 -11.7 10.9 93 -12.7 9.2 -11.46 -0.451
02:08 1023 30.21 852 25.16 -11.3 11.7 92 -12.3 9.9 -11.06 -0.435
02:09 1023 30.21 852 25.16 -11.2 11.9 88 -12.7 9.1 -10.96 -0.431
02:10 1023 30.21 852 25.16 -11.3 11.7 86 -13.2 8.3 -11.03 -0.434
02:11 1022 30.18 852 25.16 -11.6 11.2 84 -13.8 7.2 -11.3 -0.445
02:12 1022 30.18 852 25.16 -11.9 10.7 84 -14 6.8 -11.59 -0.456
02:13 1022 30.18 852 25.16 -12.1 10.2 85 -14.1 6.6 -11.81 -0.465
02:14 1022 30.18 852 25.16 -12.3 10 86 -14.2 6.5 -11.91 -0.469
02:15 1022 30.18 852 25.16 -12.4 9.7 86 -14.3 6.3 -12.02 -0.473
02:16 1022 30.18 852 25.16 -12.5 9.6 86 -14.4 6.1 -12.16 -0.479
02:17 1022 30.18 852 25.16 -12.6 9.3 86 -14.5 5.8 -12.28 -0.483
02:18 1022 30.18 852 25.16 -12.7 9.1 86 -14.6 5.7 -12.38 -0.487
02:19 1022 30.18 852 25.16 -12.7 9.1 89 -14.2 6.4 -12.32 -0.485
02:20 1022 30.18 852 25.16 -12.6 9.2 89 -14.1 6.6 -12.24 -0.482
02:21 1022 30.18 852 25.16 -12.6 9.4 87 -14.2 6.4 -12.17 -0.479
02:22 1022 30.18 852 25.16 -12.5 9.5 89 -14 6.8 -12.18 -0.48
02:23 1023 30.21 852 25.16 -12.4 9.8 88 -13.9 6.9 -12 -0.472
02:24 1023 30.21 852 25.16 -12.4 9.8 87 -14.1 6.7 -12.04 -0.474
02:25 1023 30.21 852 25.16 -12.4 9.6 86 -14.3 6.2 -12.08 -0.476
02:26 1023 30.21 852 25.16 -12.6 9.3 86 -14.4 6 -12.22 -0.481
02:27 1022 30.18 852 25.16 -12.6 9.3 87 -14.3 6.2 -12.3 -0.484
02:28 1023 30.21 852 25.16 -12.6 9.4 89 -14 6.8 -12.25 -0.482
02:29 1023 30.21 852 25.16 -12.4 9.6 90 -13.7 7.3 -12.06 -0.475
02:30 1023 30.21 852 25.16 -12.1 10.3 89 -13.5 7.7 -11.75 -0.463
02:31 1023 30.21 852 25.16 -12.2 10.1 84 -14.3 6.2 -11.85 -0.467
02:32 1023 30.21 852 25.16 -12.5 9.5 83 -14.8 5.4 -12.2 -0.48
02:33 1022 30.18 852 25.16 -12.5 9.5 90 -13.8 7.2 -12.16 -0.479
02:34 1022 30.18 852 25.16 -12 10.4 94 -12.8 9 -11.58 -0.456
02:35 1022 30.18 852 25.16 -11.5 11.4 93 -12.3 9.8 -11.11 -0.437
02:36 1022 30.18 852 25.16 -11.2 11.9 92 -12.2 10 -10.84 -0.427
02:37 1022 30.18 852 25.16 -10.8 12.5 92 -11.9 10.5 -10.51 -0.414
02:38 1022 30.18 852 25.16 -10.7 12.7 90 -12.1 10.3 -10.42 -0.41
02:39 1022 30.18 852 25.16 -10.6 12.8 89 -12.1 10.2 -10.33 -0.407
02:40 1022 30.18 852 25.16 -10.5 13.1 92 -11.6 11.1 -10.18 -0.401
02:41 1022 30.18 852 25.16 -10.2 13.7 91 -11.3 11.6 -9.89 -0.389
02:42 1022 30.18 852 25.16 -10.1 13.9 90 -11.5 11.4 -9.76 -0.384
02:43 1022 30.18 852 25.16 -10 14 85 -12.1 10.2 -9.8 -0.386
02:44 1022 30.18 852 25.16 -10.4 13.3 83 -12.8 9 -10.13 -0.399
02:45 1022 30.18 852 25.16 -10.8 12.6 84 -13.1 8.5 -10.58 -0.417
02:46 1022 30.18 852 25.16 -11.2 11.8 81 -13.8 7.1 -11 -0.433
02:47 1022 30.18 852 25.16 -11.7 11 84 -13.9 7 -11.36 -0.447
02:48 1022 30.18 852 25.16 -11.9 10.6 86 -13.8 7.2 -11.61 -0.457
02:49 1022 30.18 852 25.16 -12.2 10.1 84 -14.4 6.1 -11.8 -0.465
02:50 1022 30.18 852 25.16 -12.3 9.8 91 -13.6 7.6 -11.92 -0.469
02:51 1022 30.18 852 25.16 -12.1 10.2 91 -13.3 8.1 -11.66 -0.459
02:52 1022 30.18 852 25.16 -12.1 10.3 91 -13.3 8.1 -11.62 -0.457
02:53 1022 30.18 852 25.16 -12 10.4 91 -13.2 8.2 -11.57 -0.456
02:54 1022 30.18 852 25.16 -12 10.4 91 -13.2 8.2 -11.6 -0.457
02:55 1022 30.18 852 25.16 -12 10.4 91 -13.1 8.3 -11.59 -0.456
02:56 1022 30.18 852 25.16 -11.9 10.7 92 -12.9 8.8 -11.47 -0.452
02:57 1022 30.18 852 25.16 -11.7 11 93 -12.6 9.2 -11.34 -0.446
02:58 1022 30.18 852 25.16 -11.5 11.3 93 -12.4 9.6 -11.16 -0.439
02:59 1022 30.18 852 25.16 -11.5 11.4 92 -12.6 9.4 -11.05 -0.435
03:00 1022 30.18 852 25.16 -11.4 11.5 92 -12.4 9.6 -11.02 -0.434
03:01 1022 30.18 852 25.16 -11.5 11.4 90 -12.8 9 -11.12 -0.438
03:02 1022 30.18 852 25.16 -11.4 11.5 93 -12.3 9.8 -10.99 -0.433
03:03 1022 30.18 852 25.16 -11.3 11.7 92 -12.4 9.7 -10.94 -0.431
03:04 1022 30.18 852 25.16 -11.4 11.6 91 -12.6 9.4 -11.01 -0.433
03:05 1022 30.18 852 25.16 -11.3 11.6 93 -12.3 9.8 -10.96 -0.431
03:06 1022 30.18 851 25.13 -11 12.1 95 -11.7 11 -10.69 -0.421
03:07 1022 30.18 851 25.13 -10.7 12.8 95 -11.4 11.6 -10.39 -0.409
03:08 1022 30.18 851 25.13 -10.5 13.2 95 -11.2 11.9 -10.17 -0.4
03:09 1022 30.18 851 25.13 -10.3 13.5 94 -11 12.1 -9.95 -0.392
03:10 1022 30.18 851 25.13 -10 14 95 -10.6 12.9 -9.67 -0.381
03:11 1022 30.18 851 25.13 -9.6 14.7 96 -10.2 13.7 -9.33 -0.367
03:12 1022 30.18 851 25.13 -9.3 15.2 94 -10.1 13.8 -9.09 -0.358
03:13 1022 30.18 851 25.13 -9.3 15.2 90 -10.6 12.9 -9.06 -0.357
03:14 1022 30.18 851 25.13 -9.6 14.6 86 -11.6 11.1 -9.4 -0.37
03:15 1022 30.18 851 25.13 -10 14 87 -11.7 10.9 -9.76 -0.384
03:16 1022 30.18 851 25.13 -10.1 13.9 91 -11.2 11.8 -9.77 -0.385
03:17 1022 30.18 852 25.16 -10.1 13.8 89 -11.6 11.2 -9.81 -0.386
03:18 1022 30.18 851 25.13 -10.1 13.8 92 -11.2 11.9 -9.88 -0.389
03:19 1022 30.18 851 25.13 -9.9 14.2 92 -11 12.3 -9.65 -0.38
03:20 1022 30.18 851 25.13 -9.9 14.2 92 -10.9 12.4 -9.64 -0.38
03:21 1022 30.18 851 25.13 -9.8 14.3 90 -11.2 11.8 -9.59 -0.378
03:22 1022 30.18 851 25.13 -9.8 14.3 92 -10.9 12.3 -9.61 -0.378
03:23 1022 30.18 851 25.13 -9.9 14.1 86 -11.8 10.8 -9.74 -0.383
03:24 1022 30.18 851 25.13 -10.2 13.7 88 -11.9 10.6 -10.04 -0.395
03:25 1022 30.18 851 25.13 -10.3 13.4 90 -11.7 10.9 -10.14 -0.399
03:26 1022 30.18 851 25.13 -10.5 13 86 -12.5 9.6 -10.39 -0.409
03:27 1022 30.18 851 25.13 -10.6 12.9 91 -11.8 10.8 -10.35 -0.407
03:28 1022 30.18 851 25.13 -10.3 13.5 94 -11.1 12 -9.98 -0.393
03:29 1022 30.18 851 25.13 -10.3 13.5 83 -12.7 9.2 -10.04 -0.395
03:30 1022 30.18 851 25.13 -10.7 12.7 91 -11.9 10.5 -10.5 -0.413
03:31 1022 30.18 851 25.13 -10.4 13.2 93 -11.3 11.7 -10.3 -0.406
03:32 1022 30.18 851 25.13 -10 13.9 95 -10.7 12.8 -9.83 -0.387
03:33 1022 30.18 851 25.13 -9.7 14.5 93 -10.7 12.7 -9.6 -0.378
03:34 1022 30.18 851 25.13 -9.7 14.5 91 -10.9 12.3 -9.53 -0.375
03:35 1022 30.18 851 25.13 -9.5 14.9 94 -10.3 13.5 -9.28 -0.365
03:36 1022 30.18 851 25.13 -9.1 15.7 94 -9.8 14.3 -8.87 -0.349
03:37 1022 30.18 851 25.13 -8.8 16.2 93 -9.7 14.5 -8.61 -0.339
03:38 1022 30.18 851 25.13 -8.6 16.5 91 -9.8 14.3 -8.36 -0.329
03:39 1022 30.18 851 25.13 -8.7 16.4 85 -10.8 12.6 -8.49 -0.334
03:40 1022 30.18 851 25.13 -9.2 15.4 82 -11.7 11 -9.11 -0.359
03:41 1022 30.18 851 25.13 -9.8 14.5 85 -11.8 10.7 -9.58 -0.377
03:42 1022 30.18 851 25.13 -10 14 87 -11.8 10.7 -9.83 -0.387
03:43 1022 30.18 851 25.13 -10.2 13.7 88 -11.7 10.9 -10 -0.394
03:44 1022 30.18 851 25.13 -10.5 13.2 87 -12.3 9.9 -10.34 -0.407
03:45 1022 30.18 851 25.13 -10.5 13.1 91 -11.7 10.9 -10.4 -0.409
03:46 1022 30.18 851 25.13 -10.1 13.8 94 -10.9 12.5 -9.99 -0.393
03:47 1022 30.18 851 25.13 -9.7 14.6 94 -10.4 13.2 -9.49 -0.374
03:48 1022 30.18 851 25.13 -9.3 15.2 93 -10.2 13.7 -9.2 -0.362
03:49 1022 30.18 851 25.13 -9.1 15.5 91 -10.4 13.3 -9.01 -0.355
03:50 1022 30.18 851 25.13 -9.3 15.3 85 -11.4 11.5 -9.2 -0.362
03:51 1022 30.18 851 25.13 -9.8 14.4 81 -12.4 9.6 -9.73 -0.383
03:52 1022 30.18 851 25.13 -10.6 13 82 -13.1 8.5 -10.44 -0.411
03:53 1022 30.18 851 25.13 -11.1 12 85 -13.1 8.3 -10.91 -0.43
03:54 1022 30.18 851 25.13 -11.5 11.4 84 -13.7 7.4 -11.3 -0.445
03:55 1022 30.18 851 25.13 -11.7 10.9 89 -13.2 8.2 -11.46 -0.451
03:56 1022 30.18 851 25.13 -11.4 11.4 94 -12.2 10 -11.2 -0.441
03:57 1022 30.18 851 25.13 -11.2 11.8 92 -12.3 9.8 -10.94 -0.431
03:58 1022 30.18 851 25.13 -11 12.1 92 -12.1 10.3 -10.72 -0.422
03:59 1022 30.18 851 25.13 -11.5 11.4 84 -13.7 7.4 -11.17 -0.44
04:00 1022 30.18 851 25.13 -11.9 10.7 87 -13.6 7.5 -11.57 -0.456
04:01 1022 30.18 851 25.13 -11.8 10.8 93 -12.7 9.1 -11.44 -0.45
04:02 1022 30.18 851 25.13 -11.7 11 89 -13.1 8.4 -11.39 -0.448
04:03 1022 30.18 851 25.13 -11.7 10.9 94 -12.5 9.5 -11.38 -0.448
04:04 1022 30.18 851 25.13 -10.9 12.4 96 -11.5 11.3 -10.56 -0.416
04:05 1022 30.18 851 25.13 -11.2 11.8 89 -12.7 9.1 -10.91 -0.43
04:06 1022 30.18 851 25.13 -11.3 11.6 93 -12.2 10 -10.98 -0.432
04:07 1022 30.18 851 25.13 -10.9 12.3 94 -11.7 11 -10.62 -0.418
04:08 1022 30.18 851 25.13 -10.8 12.7 95 -11.4 11.5 -10.47 -0.412
04:09 1022 30.18 851 25.13 -10.2 13.7 96 -10.7 12.8 -9.98 -0.393
04:10 1022 30.18 851 25.13 -10.1 13.8 94 -10.9 12.3 -9.9 -0.39
04:11 1022 30.18 851 25.13 -9.9 14.1 92 -11 12.2 -9.78 -0.385
04:12 1022 30.18 851 25.13 -9.9 14.2 94 -10.7 12.8 -9.65 -0.38
04:13 1022 30.18 851 25.13 -9.7 14.6 92 -10.8 12.6 -9.41 -0.37
04:14 1022 30.18 851 25.13 -9.8 14.3 89 -11.4 11.5 -9.67 -0.381
04:15 1022 30.18 851 25.13 -10.2 13.6 87 -12 10.5 -10.12 -0.398
04:16 1022 30.18 851 25.13 -10.7 12.8 86 -12.5 9.4 -10.52 -0.414
04:17 1022 30.18 851 25.13 -11.1 12 85 -13.1 8.4 -10.94 -0.431
04:18 1022 30.18 851 25.13 -11.4 11.5 91 -12.5 9.4 -11.16 -0.439
04:19 1022 30.18 851 25.13 -11.4 11.4 89 -12.9 8.8 -11.23 -0.442
04:20 1022 30.18 851 25.13 -11.7 10.9 89 -13.2 8.2 -11.47 -0.452
04:21 1022 30.18 851 25.13 -12 10.5 89 -13.4 7.9 -11.73 -0.462
04:22 1022 30.18 851 25.13 -12.1 10.3 92 -13.2 8.3 -11.79 -0.464
04:23 1022 30.18 851 25.13 -12.2 10 89 -13.6 7.5 -11.92 -0.469
04:24 1022 30.18 851 25.13 -12.5 9.5 89 -14 6.8 -12.23 -0.481
04:25 1022 30.18 851 25.13 -12.6 9.3 90 -13.9 7 -12.32 -0.485
04:26 1022 30.18 851 25.13 -12.8 8.9 88 -14.4 6.1 -12.52 -0.493
04:27 1022 30.18 851 25.13 -13 8.6 89 -14.4 6.1 -12.72 -0.501
04:28 1022 30.18 851 25.13 -13.1 8.4 90 -14.4 6.1 -12.78 -0.503
04:29 1022 30.18 851 25.13 -13.2 8.2 89 -14.6 5.7 -12.89 -0.507
04:30 1022 30.18 851 25.13 -13.2 8.2 91 -14.4 6.1 -12.89 -0.507
04:31 1022 30.18 851 25.13 -13.3 8.1 90 -14.6 5.7 -12.91 -0.508
04:32 1022 30.18 851 25.13 -13.2 8.2 92 -14.3 6.3 -12.85 -0.506
04:33 1022 30.18 851 25.13 -13.2 8.3 90 -14.5 5.9 -12.86 -0.506
04:34 1022 30.18 851 25.13 -13.3 8 89 -14.7 5.5 -12.99 -0.511
04:35 1022 30.18 851 25.13 -13.1 8.4 94 -13.9 7 -12.78 -0.503
04:36 1022 30.18 851 25.13 -12.5 9.5 96 -13 8.6 -12.18 -0.48
04:37 1022 30.18 851 25.13 -11.6 11 96 -12.1 10.2 -11.47 -0.452
04:38 1022 30.18 851 25.13 -12 10.5 88 -13.5 7.6 -11.82 -0.465
04:39 1022 30.18 851 25.13 -12.3 9.8 87 -14 6.8 -12.11 -0.477
04:40 1022 30.18 851 25.13 -12.5 9.4 90 -13.8 7.2 -12.24 -0.482
04:41 1022 30.18 851 25.13 -12.4 9.7 91 -13.5 7.6 -12.11 -0.477
04:42 1022 30.18 851 25.13 -12.5 9.6 88 -14.1 6.6 -12.19 -0.48
04:43 1022 30.18 851 25.13 -12.7 9.2 89 -14.1 6.6 -12.4 -0.488
04:44 1022 30.18 851 25.13 -12.8 9 88 -14.3 6.3 -12.46 -0.491
04:45 1022 30.18 851 25.13 -12.6 9.4 93 -13.5 7.7 -12.26 -0.483
04:46 1022 30.18 851 25.13 -12.2 10.1 93 -13.1 8.4 -11.87 -0.467
04:47 1022 30.18 851 25.13 -12 10.4 93 -13 8.6 -11.68 -0.46
04:48 1022 30.18 851 25.13 -11.6 11.1 93 -12.6 9.4 -11.25 -0.443
04:49 1022 30.18 851 25.13 -11.3 11.6 91 -12.5 9.4 -11.03 -0.434
04:50 1022 30.18 851 25.13 -11.3 11.7 90 -12.6 9.2 -10.93 -0.43
04:51 1022 30.18 851 25.13 -11.1 11.9 91 -12.4 9.8 -10.89 -0.429
04:52 1022 30.18 852 25.16 -10.8 12.6 93 -11.6 11 -10.54 -0.415
04:53 1022 30.18 851 25.13 -10.1 13.8 93 -11.1 12 -9.87 -0.389
04:54 1022 30.18 851 25.13 -9.8 14.3 88 -11.4 11.5 -9.58 -0.377
04:55 1022 30.18 852 25.16 -9.7 14.5 88 -11.4 11.5 -9.46 -0.372
04:56 1022 30.18 852 25.16 -9.7 14.6 84 -11.9 10.6 -9.45 -0.372
04:57 1022 30.18 852 25.16 -10 14 84 -12.1 10.2 -9.71 -0.382
04:58 1022 30.18 852 25.16 -10.2 13.7 82 -12.6 9.3 -9.94 -0.391
04:59 1022 30.18 852 25.16 -10.5 13.1 83 -12.8 9 -10.36 -0.408
05:00 1022 30.18 852 25.16 -10.7 12.7 86 -12.6 9.3 -10.47 -0.412
05:01 1022 30.18 852 25.16 -10.6 13 88 -12.2 10.1 -10.26 -0.404
05:02 1022 30.18 852 25.16 -10.4 13.2 89 -11.9 10.6 -10.16 -0.4
05:03 1022 30.18 852 25.16 -10.3 13.6 89 -11.7 10.9 -9.96 -0.392
05:04 1022 30.18 852 25.16 -10 13.9 89 -11.5 11.3 -9.73 -0.383
05:05 1022 30.18 852 25.16 -9.9 14.2 87 -11.7 11 -9.56 -0.376
05:06 1022 30.18 852 25.16 -9.9 14.2 86 -11.9 10.7 -9.63 -0.379
05:07 1022 30.18 852 25.16 -10 14.1 83 -12.4 9.7 -9.65 -0.38
05:08 1022 30.18 852 25.16 -10.7 12.7 73 -14.7 5.6 -10.4 -0.409
05:09 1022 30.18 852 25.16 -11.6 11.1 82 -14.1 6.6 -11.21 -0.441
05:10 1022 30.18 852 25.16 -11.9 10.6 85 -13.9 6.9 -11.42 -0.45
05:11 1023 30.21 852 25.16 -12.1 10.3 84 -14.2 6.4 -11.64 -0.458
05:12 1023 30.21 852 25.16 -12.4 9.8 84 -14.6 5.8 -11.89 -0.468
05:13 1023 30.21 852 25.16 -12.7 9.2 82 -15.1 4.9 -12.17 -0.479
05:14 1023 30.21 852 25.16 -13 8.5 82 -15.5 4.2 -12.51 -0.493
05:15 1023 30.21 852 25.16 -13.4 7.9 84 -15.6 4 -12.84 -0.506
05:16 1023 30.21 852 25.16 -13.6 7.6 86 -15.5 4.2 -13.02 -0.513
05:17 1023 30.21 852 25.16 -13.6 7.4 88 -15.2 4.6 -13.12 -0.517
05:18 1023 30.21 852 25.16 -13.6 7.5 88 -15.2 4.6 -13.11 -0.516
05:19 1022 30.18 852 25.16 -13.7 7.3 87 -15.5 4.1 -13.27 -0.522
05:20 1023 30.21 852 25.16 -13.9 7.1 85 -15.8 3.5 -13.44 -0.529
05:21 1023 30.21 852 25.16 -14.1 6.5 85 -16.1 3 -13.7 -0.539
05:22 1023 30.21 852 25.16 -14.3 6.3 87 -16 3.3 -13.79 -0.543
05:23 1023 30.21 852 25.16 -14.3 6.4 89 -15.7 3.7 -13.8 -0.543
05:24 1023 30.21 852 25.16 -14.2 6.5 90 -15.5 4.1 -13.72 -0.54
05:25 1023 30.21 852 25.16 -14.1 6.7 90 -15.3 4.5 -13.63 -0.537
05:26 1023 30.21 852 25.16 -14.1 6.7 89 -15.5 4 -13.67 -0.538
05:27 1023 30.21 852 25.16 -14 6.7 91 -15.2 4.6 -13.62 -0.536
05:28 1023 30.21 852 25.16 -13.7 7.4 93 -14.5 5.9 -13.34 -0.525
05:29 1023 30.21 852 25.16 -13.4 7.9 93 -14.3 6.2 -13.08 -0.515
05:30 1023 30.21 852 25.16 -13.3 8.1 91 -14.4 6 -12.94 -0.509
05:31 1023 30.21 852 25.16 -13.3 8.1 90 -14.5 5.9 -12.88 -0.507
05:32 1023 30.21 852 25.16 -13.2 8.3 91 -14.3 6.3 -12.83 -0.505
05:33 1023 30.21 852 25.16 -12.9 8.8 93 -13.8 7.2 -12.55 -0.494
05:34 1023 30.21 852 25.16 -12.5 9.4 93 -13.5 7.7 -12.17 -0.479
05:35 1023 30.21 852 25.16 -12.6 9.4 89 -14 6.7 -12.2 -0.48
05:36 1023 30.21 852 25.16 -12.8 8.9 84 -15 5 -12.47 -0.491
05:37 1023 30.21 852 25.16 -13.3 8.1 85 -15.3 4.4 -12.89 -0.507
05:38 1023 30.21 852 25.16 -13.6 7.6 85 -15.5 4 -13.13 -0.517
05:39 1023 30.21 852 25.16 -13.8 7.2 88 -15.4 4.3 -13.31 -0.524
05:40 1023 30.21 852 25.16 -13.7 7.4 90 -14.9 5.1 -13.23 -0.521
05:41 1023 30.21 852 25.16 -13.4 7.8 92 -14.4 6 -12.97 -0.511
05:42 1023 30.21 852 25.16 -13.2 8.3 93 -14.1 6.6 -12.75 -0.502
05:43 1023 30.21 852 25.16 -12.9 8.7 93 -13.9 7 -12.59 -0.496
05:44 1023 30.21 852 25.16 -12.7 9.1 92 -13.8 7.2 -12.35 -0.486
05:45 1023 30.21 852 25.16 -12.6 9.3 92 -13.7 7.4 -12.2 -0.48
05:46 1023 30.21 852 25.16 -12.5 9.4 91 -13.7 7.3 -12.14 -0.478
05:47 1023 30.21 852 25.16 -12.6 9.3 90 -13.9 6.9 -12.17 -0.479
05:48 1023 30.21 852 25.16 -12.8 8.9 88 -14.4 6.1 -12.46 -0.491
05:49 1023 30.21 852 25.16 -12.8 9 92 -13.9 7 -12.42 -0.489
05:50 1023 30.21 852 25.16 -12.7 9.2 90 -14 6.9 -12.34 -0.486
05:51 1023 30.21 852 25.16 -12.8 9.1 89 -14.2 6.5 -12.39 -0.488
05:52 1023 30.21 852 25.16 -12.8 9 90 -14.2 6.5 -12.38 -0.487
05:53 1023 30.21 852 25.16 -12.6 9.2 92 -13.7 7.4 -12.26 -0.483
05:54 1023 30.21 852 25.16 -12.5 9.5 91 -13.7 7.3 -12.14 -0.478
05:55 1023 30.21 852 25.16 -12.5 9.5 91 -13.7 7.3 -12.14 -0.478
05:56 1023 30.21 852 25.16 -12.5 9.6 91 -13.6 7.5 -12.08 -0.476
05:57 1023 30.21 852 25.16 -12.4 9.6 91 -13.6 7.6 -12.05 -0.474
05:58 1023 30.21 852 25.16 -12.3 9.9 93 -13.2 8.3 -11.92 -0.469
05:59 1022 30.18 852 25.16 -11.9 10.7 96 -12.4 9.7 -11.43 -0.45
06:00 1022 30.18 852 25.16 -11.3 11.7 96 -11.8 10.8 -10.87 -0.428
06:01 1023 30.21 852 25.16 -11.2 11.9 93 -12.1 10.2 -10.77 -0.424
06:02 1023 30.21 852 25.16 -11.3 11.6 89 -12.8 9 -10.99 -0.433
06:03 1022 30.18 852 25.16 -11.4 11.6 91 -12.5 9.4 -11.04 -0.435
06:04 1022 30.18 852 25.16 -11.3 11.6 91 -12.5 9.5 -10.97 -0.432
06:05 1023 30.21 852 25.16 -11 12.2 95 -11.7 10.9 -10.68 -0.42
06:06 1023 30.21 852 25.16 -10.7 12.8 92 -11.7 10.9 -10.34 -0.407
06:07 1023 30.21 852 25.16 -10.5 13.1 93 -11.5 11.3 -10.24 -0.403
06:08 1023 30.21 852 25.16 -10.2 13.6 93 -11.2 11.8 -9.9 -0.39
06:09 1023 30.21 852 25.16 -10.1 13.8 89 -11.6 11.1 -9.82 -0.387
06:10 1023 30.21 852 25.16 -10.3 13.6 86 -12.2 10 -9.98 -0.393
06:11 1023 30.21 852 25.16 -10.5 13.1 87 -12.2 10 -10.14 -0.399
06:12 1023 30.21 852 25.16 -10.5 13 88 -12.1 10.2 -10.21 -0.402
06:13 1023 30.21 852 25.16 -10.6 13 89 -12.1 10.3 -10.23 -0.403
06:14 1023 30.21 852 25.16 -10.5 13.2 91 -11.6 11.1 -10.09 -0.397
06:15 1023 30.21 852 25.16 -10.1 13.9 93 -10.9 12.3 -9.66 -0.38
06:16 1023 30.21 852 25.16 -9.8 14.4 87 -11.5 11.2 -9.5 -0.374
06:17 1023 30.21 852 25.16 -10 14.1 86 -11.9 10.5 -9.67 -0.381
06:18 1023 30.21 852 25.16 -10.2 13.6 87 -12 10.4 -9.91 -0.39
06:19 1023 30.21 852 25.16 -10 13.9 93 -11 12.1 -9.62 -0.379
06:20 1023 30.21 852 25.16 -9.6 14.8 92 -10.6 13 -9.2 -0.362
06:21 1023 30.21 852 25.16 -9.2 15.4 90 -10.6 13 -8.93 -0.352
06:22 1023 30.21 852 25.16 -9.1 15.6 90 -10.5 13.1 -8.79 -0.346
06:23 1023 30.21 852 25.16 -8.9 16 88 -10.5 13 -8.59 -0.338
06:24 1022 30.18 852 25.16 -8.9 16 90 -10.3 13.5 -8.53 -0.336
06:25 1022 30.18 852 25.16 -8.7 16.4 90 -10 14 -8.34 -0.328
06:26 1022 30.18 852 25.16 -8.4 16.9 90 -9.8 14.4 -8.07 -0.318
06:27 1022 30.18 852 25.16 -8.3 17.1 87 -10.1 13.8 -7.93 -0.312
06:28 1022 30.18 852 25.16 -8.4 17 85 -10.5 13.2 -8.07 -0.318
06:29 1022 30.18 852 25.16 -8.4 16.9 90 -9.8 14.3 -8.06 -0.317
06:30 1022 30.18 852 25.16 -8.1 17.5 88 -9.7 14.5 -7.72 -0.304
06:31 1022 30.18 852 25.16 -8.1 17.5 85 -10.2 13.6 -7.81 -0.307
06:32 1022 30.18 852 25.16 -8.1 17.4 86 -10.1 13.9 -7.84 -0.309
06:33 1022 30.18 852 25.16 -8.2 17.3 86 -10.1 13.8 -7.88 -0.31
06:34 1022 30.18 852 25.16 -8.3 17 85 -10.4 13.3 -8.03 -0.316
06:35 1022 30.18 852 25.16 -8.5 16.7 86 -10.4 13.2 -8.22 -0.324
06:36 1022 30.18 852 25.16 -8.6 16.5 88 -10.3 13.5 -8.27 -0.326
06:37 1022 30.18 852 25.16 -8.7 16.4 86 -10.6 13 -8.34 -0.328
06:38 1022 30.18 852 25.16 -8.9 16.1 86 -10.8 12.6 -8.52 -0.335
06:39 1022 30.18 852 25.16 -9 15.7 87 -10.9 12.4 -8.65 -0.341
06:40 1022 30.18 852 25.16 -9.2 15.5 87 -11 12.2 -8.8 -0.346
06:41 1022 30.18 852 25.16 -9.3 15.3 88 -10.9 12.3 -8.9 -0.35
06:42 1022 30.18 852 25.16 -9.1 15.6 91 -10.3 13.4 -8.72 -0.343
06:43 1022 30.18 852 25.16 -8.8 16.1 90 -10.2 13.6 -8.46 -0.333
06:44 1022 30.18 852 25.16 -8.7 16.3 87 -10.5 13.1 -8.38 -0.33
06:45 1022 30.18 852 25.16 -8.8 16.3 87 -10.6 12.9 -8.43 -0.332
06:46 1022 30.18 852 25.16 -8.8 16.1 87 -10.6 12.8 -8.5 -0.335
06:47 1022 30.18 852 25.16 -8.8 16.2 91 -10 14.1 -8.36 -0.329
06:48 1022 30.18 852 25.16 -8.4 16.9 91 -9.6 14.7 -8.01 -0.315
06:49 1022 30.18 852 25.16 -8.1 17.4 88 -9.7 14.6 -7.7 -0.303
06:50 1023 30.21 852 25.16 -7.9 17.9 88 -9.6 14.7 -7.56 -0.298
06:51 1023 30.21 852 25.16 -7.7 18.1 87 -9.6 14.7 -7.44 -0.293
06:52 1023 30.21 852 25.16 -7.8 18.1 86 -9.7 14.5 -7.41 -0.292
06:53 1023 30.21 852 25.16 -7.7 18.1 87 -9.6 14.8 -7.42 -0.292
06:54 1022 30.18 852 25.16 -7.6 18.3 89 -9.2 15.4 -7.28 -0.287
06:55 1022 30.18 852 25.16 -7.3 18.8 89 -8.9 15.9 -7 -0.276
06:56 1022 30.18 852 25.16 -7.1 19.2 87 -9 15.8 -6.828 -0.269
06:57 1022 30.18 852 25.16 -7 19.3 85 -9.2 15.5 -6.726 -0.265
06:58 1022 30.18 852 25.16 -7.1 19.3 85 -9.1 15.6 -6.726 -0.265
06:59 1022 30.18 852 25.16 -7.1 19.3 85 -9.1 15.6 -6.738 -0.265
07:00 1022 30.18 852 25.16 -7.1 19.2 84 -9.3 15.2 -6.744 -0.266
07:01 1022 30.18 852 25.16 -7.2 19.1 84 -9.4 15.1 -6.784 -0.267
07:02 1022 30.18 852 25.16 -7.3 18.9 84 -9.6 14.7 -6.909 -0.272
07:03 1022 30.18 852 25.16 -7.4 18.6 84 -9.6 14.7 -7.04 -0.277
07:04 1022 30.18 852 25.16 -7.5 18.5 86 -9.5 14.9 -7.11 -0.28
07:05 1022 30.18 852 25.16 -7.5 18.6 87 -9.3 15.3 -7.07 -0.278
07:06 1022 30.18 852 25.16 -7.4 18.7 86 -9.4 15.1 -7.01 -0.276
07:07 1022 30.18 852 25.16 -7.4 18.7 85 -9.5 14.8 -7.02 -0.276
07:08 1022 30.18 852 25.16 -7.5 18.6 83 -9.8 14.3 -7.1 -0.28
07:09 1022 30.18 852 25.16 -7.6 18.3 84 -9.8 14.3 -7.2 -0.283
07:10 1022 30.18 852 25.16 -7.7 18.1 84 -9.9 14.2 -7.34 -0.289
07:11 1022 30.18 852 25.16 -7.8 17.9 83 -10.2 13.7 -7.41 -0.292
07:12 1022 30.18 852 25.16 -7.9 17.7 85 -10 14 -7.55 -0.297
07:13 1022 30.18 852 25.16 -7.9 17.7 87 -9.7 14.5 -7.53 -0.296
07:14 1022 30.18 852 25.16 -7.8 18 86 -9.8 14.4 -7.45 -0.293
07:15 1022 30.18 852 25.16 -7.8 17.9 85 -9.9 14.1 -7.45 -0.293
07:16 1022 30.18 852 25.16 -7.9 17.8 85 -9.9 14.1 -7.49 -0.295
07:17 1022 30.18 852 25.16 -7.8 17.9 86 -9.7 14.5 -7.46 -0.294
07:18 1022 30.18 852 25.16 -7.6 18.2 87 -9.4 15.1 -7.3 -0.287
07:19 1022 30.18 852 25.16 -7.4 18.6 86 -9.4 15.1 -7.07 -0.278
07:20 1022 30.18 852 25.16 -7.3 18.9 86 -9.2 15.4 -6.95 -0.274
07:21 1022 30.18 852 25.16 -7.1 19.3 86 -9 15.8 -6.717 -0.264
07:22 1022 30.18 852 25.16 -6.8 19.7 85 -9 15.8 -6.531 -0.257
07:23 1022 30.18 851 25.13 -6.6 20 83 -9 15.8 -6.327 -0.249
07:24 1022 30.18 851 25.13 -6.5 20.3 84 -8.8 16.1 -6.191 -0.244
07:25 1022 30.18 851 25.13 -6.2 20.8 83 -8.6 16.5 -5.896 -0.232
07:26 1022 30.18 851 25.13 -6 21.2 83 -8.5 16.8 -5.675 -0.223
07:27 1022 30.18 851 25.13 -5.8 21.5 82 -8.4 16.9 -5.482 -0.216
07:28 1022 30.18 851 25.13 -5.7 21.7 82 -8.3 17 -5.392 -0.212
07:29 1022 30.18 851 25.13 -5.5 22.1 81 -8.2 17.2 -5.188 -0.204
07:30 1022 30.18 851 25.13 -5.3 22.5 80 -8.2 17.3 -4.973 -0.196
07:31 1022 30.18 851 25.13 -5.1 22.8 80 -8.1 17.4 -4.865 -0.192
07:32 1022 30.18 851 25.13 -5 23.1 80 -7.9 17.7 -4.678 -0.184
07:33 1022 30.18 851 25.13 -4.7 23.6 79 -7.8 18 -4.377 -0.172
07:34 1022 30.18 851 25.13 -4.6 23.8 76 -8.2 17.2 -4.321 -0.17
07:35 1022 30.18 852 25.16 -4.8 23.4 77 -8.3 17.1 -4.543 -0.179
07:36 1022 30.18 852 25.16 -5 23 78 -8.3 17 -4.684 -0.184
07:37 1022 30.18 852 25.16 -5.1 22.8 79 -8.2 17.2 -4.793 -0.189
07:38 1022 30.18 852 25.16 -5.2 22.6 78 -8.4 16.8 -4.861 -0.191
07:39 1022 30.18 852 25.16 -5.3 22.5 79 -8.5 16.8 -4.963 -0.195
07:40 1022 30.18 852 25.16 -5.4 22.3 79 -8.5 16.7 -5.026 -0.198
07:41 1022 30.18 852 25.16 -5.4 22.2 78 -8.6 16.5 -5.133 -0.202
07:42 1022 30.18 852 25.16 -5.6 22 79 -8.6 16.5 -5.207 -0.205
07:43 1022 30.18 852 25.16 -5.6 21.9 80 -8.6 16.5 -5.298 -0.209
07:44 1022 30.18 852 25.16 -5.7 21.8 79 -8.7 16.3 -5.327 -0.21
07:45 1022 30.18 852 25.16 -5.7 21.7 80 -8.7 16.3 -5.378 -0.212
07:46 1022 30.18 852 25.16 -5.8 21.5 80 -8.7 16.3 -5.43 -0.214
07:47 1022 30.18 852 25.16 -5.8 21.6 81 -8.6 16.5 -5.453 -0.215
07:48 1022 30.18 852 25.16 -5.8 21.6 80 -8.7 16.4 -5.43 -0.214
07:49 1022 30.18 852 25.16 -5.8 21.6 80 -8.7 16.4 -5.43 -0.214
07:50 1022 30.18 852 25.16 -5.8 21.6 79 -8.8 16.1 -5.475 -0.216
07:51 1022 30.18 852 25.16 -5.7 21.7 81 -8.4 16.8 -5.391 -0.212
07:52 1022 30.18 852 25.16 -5.6 22 80 -8.4 16.8 -5.267 -0.207
07:53 1022 30.18 852 25.16 -5.4 22.3 79 -8.4 16.8 -5.119 -0.202
07:54 1022 30.18 852 25.16 -5.2 22.6 80 -8.1 17.4 -4.927 -0.194
07:55 1022 30.18 852 25.16 -5 23 76 -8.6 16.5 -4.689 -0.185
07:56 1022 30.18 852 25.16 -5.1 22.9 73 -9.3 15.3 -4.825 -0.19
07:57 1022 30.18 852 25.16 -5.5 22.1 72 -9.8 14.3 -5.336 -0.21
07:58 1022 30.18 852 25.16 -5.9 21.4 74 -9.8 14.4 -5.733 -0.226
07:59 1022 30.18 852 25.16 -6.1 21.1 76 -9.7 14.5 -5.977 -0.235
08:00 1022 30.18 852 25.16 -6.3 20.7 73 -10.4 13.2 -6.193 -0.244
08:01 1022 30.18 852 25.16 -6.7 19.9 77 -10.2 13.7 -6.687 -0.263
08:02 1022 30.18 852 25.16 -6.9 19.6 81 -9.7 14.6 -6.846 -0.27
08:03 1022 30.18 852 25.16 -6.5 20.3 84 -8.8 16.2 -6.415 -0.253
08:04 1022 30.18 852 25.16 -5.9 21.5 80 -8.8 16.2 -5.842 -0.23
08:05 1022 30.18 852 25.16 -5.5 22.1 76 -9.1 15.6 -5.525 -0.218
08:06 1023 30.21 852 25.16 -5.5 22.2 73 -9.6 14.7 -5.428 -0.214
08:07 1023 30.21 852 25.16 -5.9 21.4 63 -11.8 10.8 -5.962 -0.235
08:08 1023 30.21 852 25.16 -6.7 20 74 -10.6 12.9 -6.847 -0.27
08:09 1023 30.21 852 25.16 -7.1 19.2 78 -10.3 13.4 -7.12 -0.28
08:10 1023 30.21 852 25.16 -7.2 19 80 -10.1 13.7 -7.16 -0.282
08:11 1023 30.21 852 25.16 -7.1 19.2 82 -9.7 14.5 -7.04 -0.277
08:12 1023 30.21 852 25.16 -6.9 19.6 82 -9.5 15 -6.825 -0.269
08:13 1023 30.21 852 25.16 -6.6 20 81 -9.3 15.2 -6.637 -0.261
08:14 1023 30.21 852 25.16 -6.5 20.4 79 -9.5 14.8 -6.53 -0.257
08:15 1023 30.21 852 25.16 -6.4 20.5 78 -9.7 14.6 -6.581 -0.259
08:16 1023 30.21 852 25.16 -6.5 20.3 74 -10.5 13.2 -6.587 -0.259
08:17 1023 30.21 852 25.16 -6.9 19.5 75 -10.6 12.9 -6.955 -0.274
08:18 1023 30.21 852 25.16 -7.3 18.8 77 -10.6 12.9 -7.26 -0.286
08:19 1023 30.21 852 25.16 -7.4 18.6 80 -10.3 13.4 -7.39 -0.291
08:20 1022 30.18 852 25.16 -7.4 18.7 82 -9.9 14.2 -7.33 -0.289
08:21 1022 30.18 852 25.16 -7.1 19.2 83 -9.6 14.8 -7.08 -0.279
08:22 1022 30.18 852 25.16 -6.9 19.5 81 -9.7 14.5 -6.827 -0.269
08:23 1022 30.18 852 25.16 -7.1 19.2 74 -11 12.1 -6.969 -0.274
08:24 1022 30.18 852 25.16 -7.5 18.5 74 -11.4 11.5 -7.27 -0.286
08:25 1022 30.18 852 25.16 -8.1 17.4 72 -12.4 9.7 -7.92 -0.312
08:26 1023 30.21 852 25.16 -8.6 16.5 80 -11.5 11.3 -8.34 -0.328
08:27 1022 30.18 852 25.16 -8.6 16.5 81 -11.3 11.7 -8.35 -0.329
08:28 1022 30.18 852 25.16 -8.6 16.6 84 -10.8 12.5 -8.29 -0.326
08:29 1022 30.18 852 25.16 -8.4 16.9 83 -10.8 12.6 -8.12 -0.32
08:30 1022 30.18 852 25.16 -8.2 17.2 79 -11.2 11.9 -8.02 -0.316
08:31 1022 30.18 852 25.16 -8.5 16.8 76 -11.9 10.6 -8.28 -0.326
08:32 1022 30.18 852 25.16 -8.8 16.1 77 -12.2 10.1 -8.6 -0.339
08:33 1022 30.18 852 25.16 -9.1 15.6 81 -11.7 10.9 -8.76 -0.345
08:34 1022 30.18 852 25.16 -9.1 15.7 83 -11.5 11.4 -8.66 -0.341
08:35 1022 30.18 852 25.16 -8.9 15.9 81 -11.6 11.2 -8.59 -0.338
08:36 1022 30.18 852 25.16 -8.8 16.2 82 -11.4 11.5 -8.51 -0.335
08:37 1022 30.18 852 25.16 -8.8 16.3 81 -11.5 11.3 -8.42 -0.331
08:38 1022 30.18 852 25.16 -8.7 16.4 81 -11.4 11.5 -8.3 -0.327
08:39 1022 30.18 852 25.16 -8.6 16.5 84 -10.9 12.4 -8.19 -0.322
08:40 1022 30.18 852 25.16 -8.5 16.8 81 -11.2 11.8 -8.14 -0.32
08:41 1022 30.18 852 25.16 -8.4 16.9 80 -11.3 11.7 -8.15 -0.321
08:42 1022 30.18 852 25.16 -8.4 16.9 81 -11 12.2 -8.11 -0.319
08:43 1022 30.18 852 25.16 -8.3 17.1 81 -11 12.1 -7.99 -0.315
08:44 1022 30.18 852 25.16 -8.2 17.2 78 -11.3 11.6 -8.04 -0.317
08:45 1022 30.18 852 25.16 -8.4 16.9 74 -12.2 10 -8.24 -0.324
08:46 1022 30.18 852 25.16 -8.7 16.4 78 -11.9 10.6 -8.4 -0.331
08:47 1022 30.18 852 25.16 -8.8 16.1 75 -12.6 9.4 -8.51 -0.335
08:48 1022 30.18 852 25.16 -9 15.8 81 -11.6 11.1 -8.71 -0.343
08:49 1022 30.18 852 25.16 -8.6 16.5 84 -10.8 12.6 -8.39 -0.33
08:50 1022 30.18 852 25.16 -8.2 17.2 83 -10.6 12.9 -8.01 -0.315
08:51 1022 30.18 852 25.16 -7.9 17.8 82 -10.5 13.2 -7.75 -0.305
08:52 1022 30.18 852 25.16 -7.6 18.3 82 -10.1 13.8 -7.51 -0.296
08:53 1022 30.18 852 25.16 -7.4 18.7 80 -10.3 13.4 -7.31 -0.288
08:54 1022 30.18 852 25.16 -7.3 19 80 -10.2 13.6 -7.24 -0.285
08:55 1022 30.18 852 25.16 -7.2 19 78 -10.4 13.3 -7.27 -0.286
08:56 1022 30.18 852 25.16 -7.2 19.1 79 -10.2 13.6 -7.19 -0.283
08:57 1022 30.18 852 25.16 -7.1 19.1 75 -10.9 12.3 -7.18 -0.283
08:58 1022 30.18 852 25.16 -7.3 18.8 75 -11 12.2 -7.39 -0.291
08:59 1022 30.18 852 25.16 -7.5 18.5 74 -11.5 11.4 -7.6 -0.299
09:00 1022 30.18 852 25.16 -7.9 17.8 72 -12.1 10.3 -7.91 -0.311
09:01 1022 30.18 852 25.16 -8.3 17 72 -12.4 9.6 -8.4 -0.331
09:02 1023 30.21 852 25.16 -8.7 16.4 72 -12.8 9 -8.72 -0.343
09:03 1023 30.21 852 25.16 -8.9 16 71 -13.2 8.3 -8.97 -0.353
09:04 1023 30.21 852 25.16 -8.9 16 72 -13.1 8.5 -9.27 -0.365
09:05 1023 30.21 852 25.16 -9 15.9 75 -12.6 9.3 -9.47 -0.373
09:06 1023 30.21 852 25.16 -9 15.9 77 -12.3 9.8 -9.35 -0.368
09:07 1023 30.21 852 25.16 -8.9 16 75 -12.5 9.4 -9.22 -0.363
09:08 1023 30.21 852 25.16 -8.8 16.1 74 -12.6 9.3 -9.11 -0.359
09:09 1023 30.21 852 25.16 -8.8 16.2 74 -12.6 9.3 -9 -0.354
09:10 1023 30.21 852 25.16 -8.6 16.6 73 -12.5 9.4 -8.94 -0.352
09:11 1023 30.21 852 25.16 -8.4 16.8 75 -12.1 10.3 -8.85 -0.348
09:12 1023 30.21 852 25.16 -8.3 17.1 74 -12.2 10 -8.72 -0.343
09:13 1023 30.21 852 25.16 -8.1 17.5 73 -12.2 10.1 -8.73 -0.344
09:14 1023 30.21 852 25.16 -7.9 17.8 71 -12.3 9.8 -8.69 -0.342
09:15 1023 30.21 852 25.16 -7.8 17.9 71 -12.2 10 -8.71 -0.343
09:16 1023 30.21 852 25.16 -7.8 18.1 72 -12 10.4 -8.56 -0.337
09:17 1023 30.21 852 25.16 -7.5 18.5 71 -11.8 10.7 -8.34 -0.328
09:18 1023 30.21 852 25.16 -7.2 19.1 70 -11.7 10.9 -8.1 -0.319
09:19 1023 30.21 852 25.16 -7.2 19 70 -11.9 10.6 -7.95 -0.313
09:20 1023 30.21 852 25.16 -7.4 18.6 70 -12.1 10.2 -8 -0.315
09:21 1023 30.21 852 25.16 -7.6 18.2 73 -11.8 10.8 -8.04 -0.317
09:22 1023 30.21 852 25.16 -7.8 18 69 -12.5 9.5 -8.13 -0.32
09:23 1023 30.21 852 25.16 -8 17.6 72 -12.1 10.1 -8.24 -0.324
09:24 1023 30.21 852 25.16 -8.1 17.4 73 -12.1 10.2 -8.24 -0.324
09:25 1023 30.21 852 25.16 -8.2 17.2 73 -12.2 10 -8.34 -0.328
09:26 1023 30.21 852 25.16 -8.4 16.9 73 -12.3 9.8 -8.4 -0.331
09:27 1023 30.21 852 25.16 -8.4 16.8 74 -12.3 9.8 -8.52 -0.335
09:28 1023 30.21 852 25.16 -8.5 16.8 73 -12.5 9.6 -8.48 -0.334
09:29 1023 30.21 852 25.16 -8.5 16.8 73 -12.5 9.5 -8.52 -0.335
09:30 1023 30.21 852 25.16 -8.4 17 74 -12.3 9.9 -8.42 -0.331
09:31 1023 30.21 852 25.16 -8.4 17 73 -12.4 9.7 -8.46 -0.333
09:32 1023 30.21 852 25.16 -8.2 17.3 80 -11.1 12 -8.26 -0.325
09:33 1023 30.21 852 25.16 -7.5 18.5 81 -10.3 13.5 -7.66 -0.302
09:34 1023 30.21 852 25.16 -6.8 19.7 77 -10.2 13.6 -7.04 -0.277
09:35 1023 30.21 852 25.16 -6.4 20.5 75 -10.2 13.7 -6.551 -0.258
09:36 1023 30.21 852 25.16 -6.1 21.1 74 -10 13.9 -6.216 -0.245
09:37 1023 30.21 852 25.16 -5.8 21.6 73 -9.9 14.2 -5.928 -0.233
09:38 1023 30.21 852 25.16 -5.5 22.1 71 -9.9 14.2 -5.673 -0.223
09:39 1023 30.21 852 25.16 -5.3 22.5 66 -10.6 12.9 -5.452 -0.215
09:40 1023 30.21 852 25.16 -5.4 22.2 69 -10.3 13.4 -5.446 -0.214
09:41 1023 30.21 852 25.16 -5.4 22.3 70 -10 14.1 -5.384 -0.212
09:42 1023 30.21 852 25.16 -5.1 22.7 69 -9.9 14.2 -5.095 -0.201
09:43 1023 30.21 852 25.16 -5 23.1 69 -9.8 14.3 -4.885 -0.192
09:44 1023 30.21 852 25.16 -4.8 23.3 68 -9.8 14.4 -4.664 -0.184
09:45 1023 30.21 852 25.16 -4.6 23.6 68 -9.7 14.5 -4.46 -0.176
09:46 1023 30.21 852 25.16 -4.5 23.9 66 -9.8 14.3 -4.245 -0.167
09:47 1023 30.21 852 25.16 -4.5 23.8 67 -9.9 14.2 -4.188 -0.165
09:48 1023 30.21 852 25.16 -4.6 23.8 67 -9.8 14.3 -4.268 -0.168
09:49 1023 30.21 852 25.16 -4.6 23.8 67 -9.8 14.3 -4.326 -0.17
09:50 1023 30.21 852 25.16 -4.5 23.9 66 -9.9 14.2 -4.365 -0.172
09:51 1023 30.21 852 25.16 -4.5 23.9 66 -10 14.1 -4.405 -0.173
09:52 1023 30.21 852 25.16 -4.6 23.8 66 -10 14 -4.537 -0.179
09:53 1023 30.21 852 25.16 -4.7 23.6 65 -10.3 13.4 -4.707 -0.185
09:54 1023 30.21 852 25.16 -5 23 67 -10.2 13.6 -5.058 -0.199
09:55 1023 30.21 852 25.16 -5.3 22.5 63 -11.2 11.8 -5.365 -0.211
09:56 1023 30.21 852 25.16 -5.9 21.4 71 -10.3 13.5 -5.853 -0.23
09:57 1022 30.18 852 25.16 -5.9 21.4 72 -10.2 13.7 -5.751 -0.226
09:58 1022 30.18 852 25.16 -5.8 21.6 68 -10.8 12.6 -5.707 -0.225
09:59 1022 30.18 852 25.16 -6 21.1 70 -10.6 13 -6.013 -0.237
10:00 1022 30.18 852 25.16 -6.2 20.9 70 -10.8 12.5 -6.138 -0.242
10:01 1022 30.18 852 25.16 -6.3 20.7 72 -10.5 13.1 -6.19 -0.244
10:02 1022 30.18 852 25.16 -6.2 20.8 73 -10.4 13.4 -6.094 -0.24
10:03 1022 30.18 852 25.16 -6.1 21.1 75 -9.8 14.3 -5.953 -0.234
10:04 1022 30.18 852 25.16 -5.8 21.5 73 -9.8 14.3 -5.744 -0.226
10:05 1022 30.18 852 25.16 -5.6 21.9 74 -9.6 14.7 -5.551 -0.219
10:06 1022 30.18 852 25.16 -5.4 22.2 69 -10.2 13.7 -5.364 -0.211
10:07 1022 30.18 852 25.16 -5.5 22.2 70 -10.1 13.8 -5.416 -0.213
10:08 1022 30.18 852 25.16 -5.5 22 68 -10.5 13.1 -5.382 -0.212
10:09 1022 30.18 852 25.16 -5.7 21.8 72 -9.9 14.1 -5.507 -0.217
10:10 1022 30.18 852 25.16 -5.6 22 72 -9.9 14.1 -5.474 -0.216
10:11 1022 30.18 852 25.16 -5.6 22 71 -10.1 13.9 -5.508 -0.217
10:12 1022 30.18 852 25.16 -5.6 22 72 -9.9 14.2 -5.508 -0.217
10:13 1022 30.18 852 25.16 -5.6 21.9 70 -10.3 13.5 -5.559 -0.219
10:14 1022 30.18 852 25.16 -5.7 21.8 73 -9.7 14.5 -5.604 -0.221
10:15 1022 30.18 851 25.13 -5.4 22.3 72 -9.6 14.7 -5.327 -0.21
10:16 1022 30.18 851 25.13 -5.2 22.7 71 -9.6 14.8 -5.095 -0.201
10:17 1022 30.18 851 25.13 -5.1 22.9 70 -9.6 14.7 -4.982 -0.196
10:18 1022 30.18 851 25.13 -5 22.9 71 -9.5 14.9 -4.92 -0.194
10:19 1022 30.18 851 25.13 -4.9 23.2 73 -9 15.7 -4.733 -0.186
10:20 1022 30.18 851 25.13 -4.6 23.7 70 -9.2 15.4 -4.427 -0.174
10:21 1022 30.18 851 25.13 -4.5 24 69 -9.3 15.2 -4.325 -0.17
10:22 1022 30.18 851 25.13 -4.4 24.2 70 -9 15.7 -4.149 -0.163
10:23 1022 30.18 851 25.13 -4.2 24.4 70 -8.9 15.9 -3.991 -0.157
10:24 1022 30.18 851 25.13 -4.1 24.7 70 -8.8 16.1 -3.748 -0.148
10:25 1022 30.18 851 25.13 -3.9 25 71 -8.4 16.9 -3.573 -0.141
10:26 1022 30.18 851 25.13 -3.7 25.3 69 -8.5 16.7 -3.374 -0.133
10:27 1022 30.18 851 25.13 -3.5 25.6 69 -8.5 16.7 -3.211 -0.126
10:28 1022 30.18 851 25.13 -3.4 25.8 68 -8.5 16.7 -3.109 -0.122
10:29 1022 30.18 851 25.13 -3.4 25.9 68 -8.5 16.7 -3.075 -0.121
10:30 1022 30.18 851 25.13 -3.4 25.8 68 -8.5 16.8 -3.054 -0.12
10:31 1022 30.18 851 25.13 -3.4 25.9 69 -8.3 17.1 -3.037 -0.12
10:32 1022 30.18 851 25.13 -3.3 26.1 69 -8.2 17.2 -2.912 -0.115
10:33 1022 30.18 851 25.13 -3.2 26.3 69 -8.1 17.4 -2.754 -0.108
10:34 1022 30.18 851 25.13 -3 26.7 68 -8 17.6 -2.488 -0.098
10:35 1022 30.18 851 25.13 -2.7 27.1 66 -8.2 17.2 -2.272 -0.089
10:36 1022 30.18 851 25.13 -2.6 27.3 65 -8.4 16.9 -2.127 -0.084
10:37 1022 30.18 851 25.13 -2.5 27.5 62 -8.8 16.2 -1.974 -0.078
10:38 1022 30.18 851 25.13 -2.3 27.8 61 -8.8 16.2 -2.059 -0.081
10:39 1022 30.18 851 25.13 -2.2 28 62 -8.4 16.8 -2.225 -0.088
10:40 1022 30.18 851 25.13 -2 28.3 63 -8.1 17.4 -2.123 -0.084
10:41 1022 30.18 851 25.13 -1.7 29 60 -8.5 16.7 -1.698 -0.067
10:42 1022 30.18 851 25.13 -1.4 29.4 58 -8.5 16.6 -1.382 -0.054
10:43 1022 30.18 851 25.13 -1.3 29.6 60 -8.2 17.2 -1.28 -0.05
10:44 1022 30.18 851 25.13 -1 30.1 58 -8.3 17 -0.923 -0.036
10:45 1022 30.18 851 25.13 -0.8 30.6 56 -8.5 16.8 -0.465 -0.018
10:46 1022 30.18 851 25.13 -0.9 30.5 55 -8.7 16.3 -0.493 -0.019
10:47 1022 30.18 851 25.13 -1.1 30 56 -8.7 16.3 -0.766 -0.03
10:48 1022 30.18 851 25.13 -1.3 29.7 58 -8.6 16.5 -0.891 -0.035
10:49 1022 30.18 851 25.13 -1.2 29.8 58 -8.4 16.8 -0.913 -0.036
10:50 1022 30.18 851 25.13 -1.1 30 58 -8.4 16.8 -0.829 -0.033
10:51 1022 30.18 851 25.13 -1.1 30.1 58 -8.3 17 -0.71 -0.028
10:52 1022 30.18 851 25.13 -0.9 30.3 58 -8.2 17.3 -0.489 -0.019
10:53 1022 30.18 851 25.13 -1 30.2 59 -8.1 17.5 -0.393 -0.015
10:54 1022 30.18 851 25.13 -1.3 29.6 60 -8.1 17.4 -0.575 -0.023
10:55 1022 30.18 851 25.13 -1.7 29 62 -8 17.5 -0.903 -0.036
10:56 1022 30.18 851 25.13 -2 28.5 63 -8.1 17.5 -1.153 -0.045
10:57 1022 30.18 851 25.13 -2.1 28.2 64 -8 17.6 -1.307 -0.051
10:58 1022 30.18 851 25.13 -2.2 28 64 -8 17.6 -1.403 -0.055
10:59 1022 30.18 851 25.13 -2.5 27.4 64 -8.3 17 -1.693 -0.067
11:00 1022 30.18 851 25.13 -3 26.6 67 -8.2 17.2 -2.249 -0.089
11:01 1022 30.18 851 25.13 -3.1 26.4 69 -8.1 17.4 -2.408 -0.095
11:02 1022 30.18 851 25.13 -3 26.5 68 -8.1 17.3 -2.301 -0.091
11:03 1022 30.18 851 25.13 -2.9 26.7 67 -8.2 17.3 -2.205 -0.087
11:04 1022 30.18 851 25.13 -3.1 26.3 68 -8.2 17.2 -2.386 -0.094
11:05 1022 30.18 851 25.13 -3.1 26.3 68 -8.2 17.3 -2.421 -0.095
11:06 1022 30.18 851 25.13 -3 26.6 68 -8 17.6 -2.336 -0.092
11:07 1022 30.18 851 25.13 -2.9 26.8 68 -7.9 17.7 -2.189 -0.086
11:08 1022 30.18 851 25.13 -2.9 26.8 68 -8 17.6 -2.196 -0.086
11:09 1022 30.18 851 25.13 -2.9 26.7 69 -7.9 17.7 -2.179 -0.086
11:10 1022 30.18 851 25.13 -3 26.6 69 -7.9 17.8 -2.242 -0.088
11:11 1022 30.18 851 25.13 -3.1 26.4 70 -7.9 17.8 -2.367 -0.093
11:12 1022 30.18 851 25.13 -3.2 26.2 70 -7.9 17.8 -2.475 -0.097
11:13 1022 30.18 851 25.13 -3.2 26.2 71 -7.8 18 -2.566 -0.101
11:14 1022 30.18 851 25.13 -3.3 26 71 -7.8 18 -2.607 -0.103
11:15 1022 30.18 851 25.13 -3.4 25.9 72 -7.8 18 -2.618 -0.103
11:16 1022 30.18 851 25.13 -3.4 25.8 72 -7.8 18 -2.658 -0.105
11:17 1022 30.18 851 25.13 -3.5 25.7 72 -7.8 17.9 -2.704 -0.106
11:18 1022 30.18 851 25.13 -3.6 25.6 73 -7.8 18 -2.789 -0.11
11:19 1022 30.18 851 25.13 -3.6 25.6 73 -7.7 18.1 -2.795 -0.11
11:20 1022 30.18 851 25.13 -3.6 25.6 73 -7.7 18.1 -2.722 -0.107
11:21 1022 30.18 851 25.13 -3.4 25.8 73 -7.7 18.2 -2.631 -0.104
11:22 1022 30.18 851 25.13 -3.4 25.9 72 -7.7 18.2 -2.569 -0.101
11:23 1022 30.18 851 25.13 -3.4 25.9 72 -7.7 18.1 -2.541 -0.1
11:24 1022 30.18 851 25.13 -3.3 26.1 72 -7.7 18.2 -2.462 -0.097
11:25 1022 30.18 851 25.13 -3.1 26.4 71 -7.6 18.3 -2.292 -0.09
11:26 1022 30.18 851 25.13 -3 26.6 71 -7.6 18.3 -2.111 -0.083
11:27 1022 30.18 851 25.13 -3 26.6 70 -7.6 18.2 -2.072 -0.082
11:28 1022 30.18 851 25.13 -3 26.5 70 -7.7 18.1 -2.095 -0.082
11:29 1022 30.18 851 25.13 -3.2 26.3 71 -7.8 18 -2.26 -0.089
11:30 1022 30.18 851 25.13 -3.2 26.2 71 -7.8 17.9 -2.385 -0.094
11:31 1022 30.18 851 25.13 -3.3 26.1 71 -7.8 17.9 -2.465 -0.097
11:32 1022 30.18 851 25.13 -3.3 26.1 71 -7.7 18.1 -2.449 -0.096
11:33 1022 30.18 851 25.13 -3.2 26.3 72 -7.6 18.3 -2.409 -0.095
11:34 1022 30.18 851 25.13 -3.2 26.3 72 -7.5 18.5 -2.398 -0.094
11:35 1022 30.18 851 25.13 -3.1 26.4 73 -7.3 18.8 -2.348 -0.092
11:36 1022 30.18 851 25.13 -3 26.6 73 -7.2 19 -2.302 -0.091
11:37 1022 30.18 851 25.13 -3 26.6 73 -7.2 19 -2.201 -0.087
11:38 1022 30.18 851 25.13 -3 26.6 73 -7.2 19.1 -2.247 -0.088
11:39 1022 30.18 851 25.13 -3 26.7 74 -7 19.4 -2.218 -0.087
11:40 1022 30.18 851 25.13 -2.9 26.7 73 -7.1 19.2 -2.151 -0.085
11:41 1022 30.18 851 25.13 -2.9 26.8 73 -7.1 19.3 -2.084 -0.082
11:42 1022 30.18 851 25.13 -2.9 26.8 73 -7.1 19.2 -2.084 -0.082
11:43 1022 30.18 851 25.13 -2.9 26.9 73 -7.1 19.3 -2.052 -0.081
11:44 1022 30.18 851 25.13 -2.8 26.9 72 -7.2 19.1 -2.018 -0.079
11:45 1022 30.18 851 25.13 -2.9 26.8 72 -7.3 18.9 -2.035 -0.08
11:46 1022 30.18 851 25.13 -3 26.6 72 -7.4 18.7 -2.183 -0.086
11:47 1022 30.18 851 25.13 -3.2 26.3 72 -7.5 18.6 -2.404 -0.095
11:48 1022 30.18 851 25.13 -3.2 26.2 72 -7.5 18.5 -2.489 -0.098
11:49 1022 30.18 851 25.13 -3.2 26.2 72 -7.6 18.4 -2.507 -0.099
11:50 1022 30.18 851 25.13 -3.3 26.1 72 -7.6 18.4 -2.536 -0.1
11:51 1022 30.18 851 25.13 -3.3 26 73 -7.5 18.6 -2.638 -0.104
11:52 1022 30.18 851 25.13 -3.4 25.8 74 -7.5 18.5 -2.74 -0.108
11:53 1022 30.18 851 25.13 -3.4 25.8 74 -7.5 18.5 -2.78 -0.109
11:54 1022 30.18 851 25.13 -3.4 25.8 74 -7.5 18.5 -2.752 -0.108
11:55 1022 30.18 851 25.13 -3.4 25.8 74 -7.5 18.5 -2.769 -0.109
11:56 1022 30.18 851 25.13 -3.4 25.9 74 -7.4 18.6 -2.747 -0.108
11:57 1022 30.18 851 25.13 -3.4 25.9 74 -7.4 18.7 -2.73 -0.107
11:58 1022 30.18 851 25.13 -3.4 25.9 74 -7.4 18.7 -2.724 -0.107
11:59 1021 30.15 851 25.13 -3.3 26.1 74 -7.4 18.7 -2.668 -0.105
12:00 1021 30.15 851 25.13 -3.2 26.2 73 -7.4 18.7 -2.617 -0.103
12:01 1021 30.15 851 25.13 -3.1 26.4 72 -7.4 18.7 -2.549 -0.1
12:02 1021 30.15 851 25.13 -3 26.6 72 -7.4 18.7 -2.504 -0.099
12:03 1021 30.15 851 25.13 -3 26.6 72 -7.4 18.7 -2.498 -0.098
12:04 1021 30.15 851 25.13 -2.9 26.7 72 -7.2 19 -2.482 -0.098
12:05 1021 30.15 851 25.13 -2.9 26.8 72 -7.3 18.9 -2.442 -0.096
12:06 1021 30.15 851 25.13 -2.9 26.8 72 -7.3 18.8 -2.436 -0.096
12:07 1021 30.15 851 25.13 -2.9 26.8 72 -7.2 19 -2.414 -0.095
12:08 1021 30.15 851 25.13 -2.9 26.8 72 -7.3 18.9 -2.482 -0.098
12:09 1021 30.15 851 25.13 -2.9 26.8 72 -7.2 19.1 -2.459 -0.097
12:10 1021 30.15 851 25.13 -2.9 26.8 73 -7 19.4 -2.386 -0.094
12:11 1021 30.15 851 25.13 -2.9 26.9 73 -7 19.4 -2.358 -0.093
12:12 1021 30.15 851 25.13 -2.8 26.9 73 -7 19.4 -2.346 -0.092
12:13 1021 30.15 851 25.13 -2.8 27 72 -7 19.3 -2.273 -0.089
12:14 1021 30.15 851 25.13 -2.7 27.2 72 -7.1 19.2 -2.171 -0.085
12:15 1021 30.15 851 25.13 -2.5 27.5 70 -7.2 19 -2.07 -0.081
12:16 1021 30.15 850 25.1 -2.4 27.7 69 -7.3 18.9 -1.889 -0.074
12:17 1021 30.15 850 25.1 -2.2 28 69 -7.2 19.1 -1.697 -0.067
12:18 1021 30.15 850 25.1 -2.2 28.1 70 -7 19.5 -1.527 -0.06
12:19 1021 30.15 850 25.1 -2.2 28 69 -7.1 19.2 -1.562 -0.061
12:20 1021 30.15 850 25.1 -2.3 27.9 70 -7.1 19.2 -1.636 -0.064
12:21 1021 30.15 850 25.1 -2.3 27.9 70 -7 19.3 -1.687 -0.066
12:22 1021 30.15 850 25.1 -2.3 27.9 70 -7.1 19.2 -1.688 -0.066
12:23 1021 30.15 850 25.1 -2.2 28 69 -7.2 19 -1.659 -0.065
12:24 1021 30.15 850 25.1 -2.2 28.1 68 -7.2 19 -1.529 -0.06
12:25 1021 30.15 850 25.1 -2 28.4 68 -7.2 19.1 -1.377 -0.054
12:26 1021 30.15 850 25.1 -1.8 28.7 67 -7.1 19.2 -1.151 -0.045
12:27 1021 30.15 850 25.1 -1.5 29.3 67 -6.9 19.5 -0.862 -0.034
12:28 1021 30.15 850 25.1 -1.3 29.6 66 -6.9 19.7 -0.613 -0.024
12:29 1021 30.15 850 25.1 -1.3 29.7 66 -6.8 19.8 -0.495 -0.019
12:30 1021 30.15 850 25.1 -1.3 29.6 67 -6.8 19.8 -0.529 -0.021
12:31 1021 30.15 850 25.1 -1.4 29.5 69 -6.4 20.5 -0.631 -0.025
12:32 1021 30.15 850 25.1 -1.5 29.3 68 -6.6 20.1 -0.778 -0.031
12:33 1021 30.15 850 25.1 -1.6 29.1 69 -6.5 20.3 -0.903 -0.036
12:34 1021 30.15 850 25.1 -1.7 28.9 70 -6.5 20.3 -0.948 -0.037
12:35 1021 30.15 850 25.1 -1.8 28.7 70 -6.6 20.1 -0.971 -0.038
12:36 1021 30.15 850 25.1 -1.9 28.6 69 -6.8 19.8 -1.028 -0.04
12:37 1021 30.15 850 25.1 -1.9 28.5 69 -7 19.5 -1.124 -0.044
12:38 1021 30.15 850 25.1 -2 28.4 68 -7.2 19.1 -1.249 -0.049
12:39 1021 30.15 850 25.1 -2 28.3 69 -7 19.4 -1.329 -0.052
12:40 1021 30.15 850 25.1 -2 28.4 68 -7.2 19 -1.341 -0.053
12:41 1021 30.15 850 25.1 -1.9 28.7 67 -7.2 19 -1.284 -0.051
12:42 1021 30.15 850 25.1 -1.8 28.7 66 -7.3 18.8 -1.2 -0.047
12:43 1021 30.15 850 25.1 -1.7 28.9 66 -7.3 18.9 -1.172 -0.046
12:44 1021 30.15 850 25.1 -1.7 28.9 67 -7.1 19.2 -1.036 -0.041
12:45 1021 30.15 850 25.1 -1.5 29.2 66 -7 19.4 -0.845 -0.033
12:46 1021 30.15 850 25.1 -1.5 29.4 66 -7.1 19.3 -0.777 -0.031
12:47 1021 30.15 850 25.1 -1.5 29.3 64 -7.4 18.8 -0.817 -0.032
12:48 1021 30.15 850 25.1 -1.4 29.5 63 -7.5 18.5 -0.789 -0.031
12:49 1021 30.15 850 25.1 -1.3 29.7 63 -7.4 18.7 -0.744 -0.029
12:50 1021 30.15 850 25.1 -1.2 29.8 64 -7.2 19 -0.704 -0.028
12:51 1021 30.15 850 25.1 -1.3 29.7 66 -6.8 19.7 -0.677 -0.027
12:52 1021 30.15 850 25.1 -1.4 29.5 68 -6.5 20.3 -0.784 -0.031
12:53 1021 30.15 850 25.1 -1.5 29.4 67 -6.7 19.9 -0.767 -0.03
12:54 1021 30.15 850 25.1 -1.4 29.4 67 -6.8 19.7 -0.756 -0.03
12:55 1021 30.15 850 25.1 -1.6 29.2 68 -6.7 19.9 -0.92 -0.036
12:56 1021 30.15 850 25.1 -1.8 28.7 68 -6.9 19.7 -1.215 -0.048
12:57 1021 30.15 850 25.1 -1.8 28.7 68 -7 19.3 -1.3 -0.051
12:58 1021 30.15 850 25.1 -1.6 29.1 66 -7.2 19.1 -1.136 -0.045
12:59 1021 30.15 850 25.1 -1.4 29.5 65 -7.1 19.2 -0.898 -0.035
13:00 1021 30.15 850 25.1 -1.3 29.6 67 -6.7 20 -0.785 -0.031
13:01 1021 30.15 850 25.1 -1.4 29.5 68 -6.6 20.2 -0.853 -0.034
13:02 1021 30.15 850 25.1 -1.4 29.5 66 -6.9 19.5 -0.904 -0.036
13:03 1021 30.15 850 25.1 -1.2 29.8 65 -7.1 19.3 -0.769 -0.03
13:04 1021 30.15 850 25.1 -0.9 30.4 63 -7.1 19.2 -0.503 -0.02
13:05 1021 30.15 850 25.1 -0.7 30.8 62 -7.1 19.3 -0.282 -0.011
13:06 1021 30.15 850 25.1 -0.6 31 62 -7 19.4 -0.152 -0.006
13:07 1021 30.15 850 25.1 -0.5 31.2 62 -6.9 19.5 -0.05 -0.002
13:08 1021 30.15 850 25.1 -0.2 31.7 61 -6.8 19.7 0.238 0.009
13:09 1021 30.15 850 25.1 0.2 32.4 60 -6.7 19.9 0.793 0.031
13:10 1021 30.15 850 25.1 0.6 33.1 58 -6.8 19.7 1.41 0.056
13:11 1021 30.15 850 25.1 0.8 33.5 57 -6.8 19.7 1.732 0.068
13:12 1021 30.15 850 25.1 1 33.8 56 -6.9 19.7 1.834 0.072
13:13 1021 30.15 850 25.1 1 33.8 57 -6.6 20.1 1.789 0.07
13:14 1021 30.15 850 25.1 0.6 33.1 58 -6.8 19.8 1.455 0.057
13:15 1021 30.15 850 25.1 0.5 32.8 58 -6.9 19.6 1.149 0.045
13:16 1021 30.15 850 25.1 0.5 32.9 58 -6.9 19.5 1.115 0.044
13:17 1021 30.15 850 25.1 0.7 33.3 57 -6.9 19.5 1.404 0.055
13:18 1021 30.15 850 25.1 0.9 33.7 56 -6.9 19.6 1.8 0.071
13:19 1021 30.15 850 25.1 1.2 34.1 57 -6.4 20.5 2.162 0.085
13:20 1021 30.15 850 25.1 1 33.9 59 -6 21.1 2.202 0.087
13:21 1021 30.15 850 25.1 0.7 33.2 59 -6.5 20.3 1.823 0.072
13:22 1021 30.15 850 25.1 0.2 32.4 61 -6.4 20.4 1.336 0.053
13:23 1021 30.15 850 25.1 -0.1 31.9 61 -6.6 20.1 0.94 0.037
13:24 1021 30.15 850 25.1 -0.1 31.8 61 -6.7 19.9 0.793 0.031
13:25 1021 30.15 850 25.1 -0 32 61 -6.6 20.1 0.798 0.031
13:26 1021 30.15 850 25.1 0.1 32.2 60 -6.7 19.9 0.872 0.034
13:27 1021 30.15 850 25.1 0.2 32.4 60 -6.6 20.2 0.974 0.038
13:28 1021 30.15 850 25.1 0.2 32.4 59 -6.8 19.8 1.008 0.04
13:29 1021 30.15 850 25.1 0.3 32.5 61 -6.4 20.5 1.041 0.041
13:30 1021 30.15 850 25.1 0.3 32.5 62 -6.1 21 1.019 0.04
13:31 1021 30.15 850 25.1 0.3 32.5 62 -6.1 21.1 0.991 0.039
13:32 1021 30.15 850 25.1 0.2 32.3 64 -5.9 21.4 0.883 0.035
13:33 1021 30.15 850 25.1 0.1 32.1 65 -5.8 21.5 0.708 0.028
13:34 1021 30.15 850 25.1 -0.1 31.8 66 -5.8 21.6 0.504 0.02
13:35 1021 30.15 850 25.1 -0.3 31.5 66 -5.8 21.6 0.345 0.014
13:36 1021 30.15 850 25.1 -0.3 31.4 67 -5.8 21.6 0.26 0.01
13:37 1021 30.15 850 25.1 -0.3 31.4 66 -5.9 21.4 0.334 0.013
13:38 1021 30.15 850 25.1 -0.3 31.5 67 -5.8 21.6 0.361 0.014
13:39 1021 30.15 850 25.1 -0.3 31.4 68 -5.5 22.2 0.378 0.015
13:40 1021 30.15 850 25.1 -0.5 31.1 69 -5.5 22 0.298 0.012
13:41 1021 30.15 850 25.1 -0.7 30.8 70 -5.4 22.2 0.128 0.005
13:42 1021 30.15 850 25.1 -0.8 30.6 70 -5.5 22 -0.07 -0.003
13:43 1021 30.15 850 25.1 -0.9 30.4 71 -5.6 22 -0.229 -0.009
13:44 1021 30.15 850 25.1 -1 30.2 71 -5.5 22 -0.286 -0.011
13:45 1021 30.15 850 25.1 -1 30.1 71 -5.6 22 -0.348 -0.014
13:46 1021 30.15 850 25.1 -1 30.1 72 -5.5 22.1 -0.377 -0.015
13:47 1021 30.15 850 25.1 -1.1 30 72 -5.5 22.1 -0.394 -0.016
13:48 1021 30.15 850 25.1 -1.1 30 71 -5.7 21.7 -0.428 -0.017
13:49 1021 30.15 850 25.1 -1.1 30 71 -5.8 21.6 -0.451 -0.018
13:50 1021 30.15 850 25.1 -1.1 30 71 -5.7 21.7 -0.474 -0.019
13:51 1021 30.15 850 25.1 -1.1 30 71 -5.8 21.6 -0.463 -0.018
13:52 1021 30.15 850 25.1 -1.1 30 70 -5.9 21.4 -0.469 -0.018
13:53 1021 30.15 850 25.1 -1 30.1 71 -5.7 21.7 -0.395 -0.016
13:54 1021 30.15 850 25.1 -1 30.2 70 -5.8 21.6 -0.311 -0.012
13:55 1021 30.15 850 25.1 -1 30.3 69 -5.9 21.4 -0.226 -0.009
13:56 1021 30.15 850 25.1 -0.9 30.4 68 -6.1 21.1 -0.203 -0.008
13:57 1021 30.15 850 25.1 -0.7 30.8 66 -6.2 20.9 0 0
13:58 1021 30.15 850 25.1 -0.5 31.1 65 -6.2 20.8 0.147 0.006
13:59 1021 30.15 850 25.1 -0.5 31.1 65 -6.2 20.8 0.187 0.007
14:00 1021 30.15 850 25.1 -0.6 30.9 66 -6.2 20.8 0.011 0
14:01 1021 30.15 850 25.1 -0.7 30.7 66 -6.3 20.7 -0.159 -0.006
14:02 1021 30.15 850 25.1 -0.7 30.7 66 -6.3 20.6 -0.215 -0.008
14:03 1021 30.15 850 25.1 -0.7 30.8 65 -6.4 20.4 -0.136 -0.005
14:04 1021 30.15 850 25.1 -0.5 31.1 64 -6.5 20.4 0.017 0.001
14:05 1021 30.15 850 25.1 -0.4 31.2 64 -6.3 20.6 0.152 0.006
14:06 1021 30.15 850 25.1 -0.4 31.2 65 -6.3 20.7 0.079 0.003
14:07 1021 30.15 850 25.1 -0.5 31.1 64 -6.4 20.5 -0.012 -0
14:08 1021 30.15 850 25.1 -0.4 31.3 65 -6.3 20.7 0.045 0.002
14:09 1021 30.15 850 25.1 -0.3 31.5 64 -6.2 20.8 0.209 0.008
14:10 1021 30.15 850 25.1 -0 32 64 -6.1 21.1 0.417 0.016
14:11 1021 30.15 850 25.1 0.3 32.5 63 -5.9 21.3 0.722 0.028
14:12 1021 30.15 850 25.1 0.8 33.4 60 -6 21.1 1.237 0.049
14:13 1021 30.15 850 25.1 1.2 34.1 59 -6 21.2 1.673 0.066
14:14 1021 30.15 850 25.1 1.4 34.5 58 -5.9 21.4 2.035 0.08
14:15 1021 30.15 850 25.1 1.6 34.9 57 -6 21.2 2.307 0.091
14:16 1021 30.15 850 25.1 1.6 34.9 56 -6.2 20.9 2.294 0.09
14:17 1021 30.15 850 25.1 1.6 34.9 56 -6.3 20.6 2.311 0.091
14:18 1021 30.15 850 25.1 1.6 34.9 56 -6.4 20.6 2.283 0.09
14:19 1021 30.15 850 25.1 1.4 34.5 56 -6.5 20.3 2.01 0.079
14:20 1021 30.15 850 25.1 1.3 34.3 56 -6.5 20.3 1.806 0.071
14:21 1021 30.15 850 25.1 1.2 34.2 57 -6.4 20.4 1.722 0.068
14:22 1021 30.15 850 25.1 1.2 34.1 57 -6.4 20.4 1.722 0.068
14:23 1021 30.15 850 25.1 1.1 33.9 57 -6.5 20.4 1.688 0.066
14:24 1021 30.15 850 25.1 1 33.8 58 -6.5 20.4 1.677 0.066
14:25 1021 30.15 850 25.1 1 33.8 58 -6.4 20.6 1.631 0.064
14:26 1021 30.15 850 25.1 1 33.7 58 -6.4 20.5 1.546 0.061
14:27 1021 30.15 850 25.1 0.9 33.6 58 -6.4 20.5 1.461 0.058
14:28 1021 30.15 850 25.1 0.9 33.6 58 -6.3 20.6 1.422 0.056
14:29 1021 30.15 850 25.1 0.9 33.7 59 -6.3 20.7 1.501 0.059
14:30 1021 30.15 850 25.1 1 33.8 58 -6.3 20.7 1.779 0.07
14:31 1021 30.15 850 25.1 1 33.7 58 -6.3 20.7 2.079 0.082
14:32 1021 30.15 850 25.1 0.9 33.6 59 -6.3 20.7 2.266 0.089
14:33 1021 30.15 850 25.1 0.9 33.6 59 -6.3 20.6 2.458 0.097
14:34 1021 30.15 850 25.1 0.8 33.5 59 -6.3 20.7 2.589 0.102
14:35 1021 30.15 850 25.1 0.8 33.4 59 -6.3 20.6 2.515 0.099
14:36 1021 30.15 850 25.1 0.8 33.4 59 -6.3 20.7 2.283 0.09
14:37 1021 30.15 850 25.1 0.9 33.6 59 -6.3 20.6 2.22 0.087
14:38 1021 30.15 850 25.1 1.2 34.1 58 -6.1 21 2.339 0.092
14:39 1021 30.15 850 25.1 1.5 34.8 57 -6.1 21 2.655 0.105
14:40 1021 30.15 850 25.1 2 35.6 55 -6.2 20.9 2.954 0.116
14:41 1021 30.15 850 25.1 2.3 36.2 53 -6.2 20.8 3.209 0.126
14:42 1021 30.15 850 25.1 2.7 36.9 52 -6.1 20.9 3.481 0.137
14:43 1021 30.15 850 25.1 3 37.5 50 -6.3 20.6 3.668 0.144
14:44 1021 30.15 850 25.1 2.8 37.1 51 -6.3 20.6 3.764 0.148
14:45 1021 30.15 850 25.1 2.4 36.4 53 -6.3 20.7 3.549 0.14
14:46 1021 30.15 850 25.1 2.1 35.8 54 -6.3 20.7 3.181 0.125
14:47 1021 30.15 850 25.1 1.9 35.5 55 -6.1 21 2.598 0.102
14:48 1021 30.15 850 25.1 1.7 35.1 56 -6 21.2 2.286 0.09
14:49 1021 30.15 850 25.1 1.6 35 57 -6 21.2 2.167 0.085
14:50 1021 30.15 850 25.1 1.6 34.8 57 -5.9 21.3 1.952 0.077
14:51 1021 30.15 850 25.1 1.5 34.6 58 -6 21.2 1.805 0.071
14:52 1021 30.15 850 25.1 1.4 34.5 58 -5.9 21.4 1.895 0.075
14:53 1021 30.15 850 25.1 1.2 34.2 59 -6 21.3 1.816 0.071
14:54 1021 30.15 850 25.1 1.1 33.9 60 -5.9 21.3 1.47 0.058
14:55 1021 30.15 850 25.1 0.8 33.4 61 -6 21.2 1.154 0.045
14:56 1021 30.15 850 25.1 0.7 33.2 61 -6.1 21 0.944 0.037
14:57 1021 30.15 850 25.1 0.7 33.3 60 -6.1 21 1.085 0.043
14:58 1021 30.15 850 25.1 0.8 33.4 59 -6.3 20.6 1.261 0.05
14:59 1021 30.15 850 25.1 0.7 33.3 59 -6.3 20.6 1.396 0.055
15:00 1021 30.15 850 25.1 0.7 33.3 59 -6.3 20.7 1.521 0.06
15:01 1021 30.15 850 25.1 0.8 33.4 60 -6.2 20.9 1.577 0.062
15:02 1021 30.15 850 25.1 0.6 33.1 61 -6.2 20.9 1.464 0.058
15:03 1021 30.15 850 25.1 0.4 32.8 61 -6.2 20.9 1.339 0.053
15:04 1021 30.15 850 25.1 0.3 32.5 62 -6.2 20.8 1.266 0.05
15:05 1020 30.12 850 25.1 0.2 32.3 62 -6.2 20.8 1.192 0.047
15:06 1021 30.15 850 25.1 0.2 32.4 62 -6.3 20.7 1.169 0.046
15:07 1021 30.15 850 25.1 0.3 32.5 62 -6.2 20.9 1.203 0.047
15:08 1020 30.12 850 25.1 0.2 32.3 63 -6.1 21.1 1.22 0.048
15:09 1020 30.12 850 25.1 0 32.1 63 -6.2 20.9 1.135 0.045
15:10 1021 30.15 850 25.1 0 32 63 -6.2 20.8 1.034 0.041
15:11 1020 30.12 850 25.1 -0.1 31.8 62 -6.5 20.4 0.847 0.033
15:12 1020 30.12 850 25.1 -0.2 31.7 64 -6.2 20.8 0.666 0.026
15:13 1020 30.12 850 25.1 -0.2 31.6 64 -6.2 20.9 0.502 0.02
15:14 1020 30.12 850 25.1 -0.2 31.6 65 -6.1 21.1 0.411 0.016
15:15 1020 30.12 850 25.1 -0.3 31.4 65 -6.1 21 0.264 0.01
15:16 1020 30.12 850 25.1 -0.4 31.2 65 -6.1 21 0.083 0.003
15:17 1020 30.12 850 25.1 -0.5 31 66 -6 21.1 -0.076 -0.003
15:18 1020 30.12 850 25.1 -0.7 30.8 67 -6 21.1 -0.285 -0.011
15:19 1020 30.12 850 25.1 -0.8 30.6 67 -6.1 21.1 -0.409 -0.016
15:20 1020 30.12 850 25.1 -0.9 30.4 67 -6.2 20.8 -0.517 -0.02
15:21 1020 30.12 850 25.1 -1 30.3 66 -6.6 20.1 -0.692 -0.027
15:22 1020 30.12 850 25.1 -1.3 29.6 67 -6.6 20.1 -1.066 -0.042
15:23 1020 30.12 849 25.07 -1.7 28.9 69 -6.7 20 -1.438 -0.057
15:24 1020 30.12 849 25.07 -1.9 28.6 70 -6.6 20.1 -1.568 -0.062
15:25 1020 30.12 849 25.07 -1.9 28.6 70 -6.6 20 -1.506 -0.059
15:26 1020 30.12 849 25.07 -1.8 28.8 70 -6.5 20.2 -1.296 -0.051
15:27 1020 30.12 849 25.07 -1.6 29.1 69 -6.5 20.3 -1.069 -0.042
15:28 1020 30.12 849 25.07 -1.3 29.6 69 -6.4 20.5 -0.769 -0.03
15:29 1020 30.12 849 25.07 -1.3 29.7 68 -6.5 20.3 -0.684 -0.027
15:30 1020 30.12 849 25.07 -1.3 29.6 69 -6.4 20.5 -0.587 -0.023
15:31 1020 30.12 849 25.07 -1.2 29.8 68 -6.4 20.5 -0.508 -0.02
15:32 1020 30.12 849 25.07 -1.2 29.9 68 -6.4 20.6 -0.479 -0.019
15:33 1020 30.12 849 25.07 -1.1 30 67 -6.4 20.4 -0.468 -0.018
15:34 1020 30.12 849 25.07 -1.2 29.8 68 -6.3 20.6 -0.502 -0.02
15:35 1020 30.12 849 25.07 -1.3 29.7 68 -6.4 20.5 -0.552 -0.022
15:36 1020 30.12 849 25.07 -1.3 29.6 69 -6.3 20.6 -0.58 -0.023
15:37 1020 30.12 849 25.07 -1.3 29.7 67 -6.6 20.2 -0.569 -0.022
15:38 1020 30.12 849 25.07 -1.5 29.2 68 -6.7 19.9 -0.737 -0.029
15:39 1020 30.12 849 25.07 -1.8 28.8 70 -6.5 20.3 -0.935 -0.037
15:40 1020 30.12 849 25.07 -1.8 28.8 69 -6.7 20 -1.009 -0.04
15:41 1020 30.12 850 25.1 -1.8 28.7 69 -6.7 19.9 -1.149 -0.045
15:42 1020 30.12 850 25.1 -1.9 28.6 70 -6.6 20.2 -1.273 -0.05
15:43 1020 30.12 850 25.1 -1.7 28.9 69 -6.7 19.9 -1.205 -0.047
15:44 1020 30.12 850 25.1 -1.7 28.9 69 -6.6 20.1 -1.289 -0.051
15:45 1020 30.12 849 25.07 -1.7 28.9 70 -6.5 20.3 -1.233 -0.049
15:46 1020 30.12 849 25.07 -1.6 29.2 69 -6.6 20.2 -1.114 -0.044
15:47 1020 30.12 849 25.07 -1.4 29.4 68 -6.5 20.2 -0.977 -0.038
15:48 1020 30.12 849 25.07 -1.2 29.8 68 -6.4 20.4 -0.773 -0.03
15:49 1020 30.12 849 25.07 -0.9 30.4 66 -6.5 20.4 -0.417 -0.016
15:50 1020 30.12 849 25.07 -0.6 31 64 -6.5 20.3 -0.127 -0.005
15:51 1020 30.12 850 25.1 -0.3 31.5 63 -6.4 20.5 0.082 0.003
15:52 1020 30.12 849 25.07 -0.2 31.7 62 -6.6 20.2 0.241 0.009
15:53 1020 30.12 849 25.07 -0.3 31.4 62 -6.8 19.8 0.19 0.007
15:54 1020 30.12 850 25.1 -0.6 30.9 64 -6.6 20.1 -0.008 -0
15:55 1020 30.12 850 25.1 -0.8 30.6 65 -6.6 20.2 -0.132 -0.005
15:56 1020 30.12 850 25.1 -0.8 30.6 65 -6.6 20.1 -0.126 -0.005
15:57 1020 30.12 850 25.1 -0.8 30.5 63 -6.9 19.5 -0.228 -0.009
15:58 1020 30.12 850 25.1 -1.2 29.9 65 -7 19.4 -0.517 -0.02
15:59 1020 30.12 850 25.1 -1.4 29.4 66 -7 19.5 -0.845 -0.033
16:00 1020 30.12 850 25.1 -1.6 29.1 67 -7 19.5 -1.088 -0.043
16:01 1020 30.12 850 25.1 -1.7 28.9 67 -7 19.4 -1.212 -0.048
16:02 1020 30.12 850 25.1 -1.5 29.2 66 -7 19.4 -1.076 -0.042
16:03 1021 30.15 850 25.1 -1.5 29.3 66 -7.1 19.1 -1.054 -0.041
16:04 1020 30.12 850 25.1 -1.5 29.4 64 -7.3 18.8 -1.014 -0.04
16:05 1021 30.15 850 25.1 -1.5 29.3 65 -7.2 19 -1.071 -0.042
16:06 1020 30.12 850 25.1 -1.3 29.6 64 -7.3 18.9 -0.98 -0.039
16:07 1020 30.12 850 25.1 -1.4 29.5 63 -7.5 18.5 -0.985 -0.039
16:08 1021 30.15 850 25.1 -1.6 29.1 66 -7.3 18.9 -1.222 -0.048
16:09 1021 30.15 850 25.1 -1.4 29.4 65 -7.3 18.9 -1.126 -0.044
16:10 1021 30.15 850 25.1 -1.6 29.2 62 -7.8 17.9 -1.08 -0.043
16:11 1021 30.15 850 25.1 -2.3 27.8 67 -7.7 18.2 -1.726 -0.068
16:12 1021 30.15 850 25.1 -2.8 26.9 69 -7.8 17.9 -2.212 -0.087
16:13 1021 30.15 850 25.1 -3.1 26.4 71 -7.6 18.2 -2.67 -0.105
16:14 1021 30.15 850 25.1 -3.4 25.9 72 -7.7 18.2 -3.009 -0.118
16:15 1021 30.15 850 25.1 -3.5 25.7 73 -7.6 18.3 -3.111 -0.122
16:16 1021 30.15 850 25.1 -3.3 26.1 73 -7.4 18.6 -2.94 -0.116
16:17 1021 30.15 850 25.1 -2.9 26.8 71 -7.5 18.5 -2.646 -0.104
16:18 1021 30.15 850 25.1 -2.9 26.9 69 -7.8 17.9 -2.471 -0.097
16:19 1021 30.15 850 25.1 -3 26.7 68 -8 17.6 -2.504 -0.099
16:20 1021 30.15 850 25.1 -3.1 26.4 68 -8.1 17.4 -2.657 -0.105
16:21 1021 30.15 850 25.1 -3.3 26.1 69 -8.2 17.3 -2.832 -0.111
16:22 1021 30.15 850 25.1 -3.5 25.8 69 -8.3 17.1 -2.989 -0.118
16:23 1021 30.15 850 25.1 -3.5 25.6 71 -8 17.5 -3.108 -0.122
16:24 1021 30.15 850 25.1 -3.4 25.8 72 -7.8 17.9 -3.028 -0.119
16:25 1021 30.15 850 25.1 -3.2 26.2 72 -7.6 18.3 -2.851 -0.112
16:26 1021 30.15 850 25.1 -3.1 26.5 69 -8 17.5 -2.682 -0.106
16:27 1021 30.15 850 25.1 -3 26.6 70 -7.7 18.2 -2.676 -0.105
16:28 1021 30.15 850 25.1 -2.7 27.1 69 -7.6 18.3 -2.38 -0.094
16:29 1021 30.15 850 25.1 -2.5 27.6 67 -7.7 18.1 -2.12 -0.083
16:30 1021 30.15 850 25.1 -2.4 27.7 65 -8 17.6 -1.995 -0.079
16:31 1021 30.15 850 25.1 -2.5 27.4 67 -8 17.7 -2.283 -0.09
16:32 1021 30.15 850 25.1 -2.7 27.2 66 -8.1 17.4 -2.464 -0.097
16:33 1021 30.15 850 25.1 -2.8 27 67 -8.1 17.4 -2.504 -0.099
16:34 1021 30.15 850 25.1 -2.8 27 67 -8.1 17.4 -2.52 -0.099
16:35 1021 30.15 850 25.1 -2.8 27 67 -8.1 17.5 -2.509 -0.099
16:36 1021 30.15 850 25.1 -2.7 27.2 67 -8 17.6 -2.373 -0.093
16:37 1021 30.15 850 25.1 -2.5 27.6 66 -7.9 17.7 -2.163 -0.085
16:38 1021 30.15 850 25.1 -2.3 27.9 65 -8 17.7 -1.925 -0.076
16:39 1021 30.15 850 25.1 -2.3 27.9 65 -8 17.6 -2.004 -0.079
16:40 1021 30.15 850 25.1 -2.4 27.7 65 -8 17.6 -2.094 -0.082
16:41 1021 30.15 850 25.1 -2.4 27.6 65 -8.1 17.4 -2.128 -0.084
16:42 1021 30.15 850 25.1 -2.6 27.3 66 -8.2 17.3 -2.343 -0.092
16:43 1021 30.15 850 25.1 -2.8 26.9 67 -8.1 17.4 -2.575 -0.101
16:44 1021 30.15 850 25.1 -3 26.7 66 -8.4 16.9 -2.711 -0.107
16:45 1021 30.15 850 25.1 -3.1 26.3 66 -8.6 16.5 -2.937 -0.116
16:46 1021 30.15 850 25.1 -3.4 25.8 67 -8.8 16.2 -3.192 -0.126
16:47 1021 30.15 850 25.1 -3.6 25.6 66 -9 15.7 -3.373 -0.133
16:48 1021 30.15 850 25.1 -3.8 25.2 69 -8.7 16.4 -3.565 -0.14
16:49 1021 30.15 850 25.1 -3.5 25.7 68 -8.5 16.7 -3.265 -0.129
16:50 1021 30.15 850 25.1 -3.1 26.5 66 -8.6 16.5 -2.807 -0.111
16:51 1021 30.15 850 25.1 -3 26.7 65 -8.6 16.6 -2.784 -0.11
16:52 1021 30.15 850 25.1 -3.2 26.2 66 -8.7 16.4 -3.027 -0.119
16:53 1021 30.15 850 25.1 -3.3 26.1 65 -9 15.8 -3.101 -0.122
16:54 1021 30.15 850 25.1 -3.4 25.8 66 -8.9 16.1 -3.292 -0.13
16:55 1021 30.15 850 25.1 -3.6 25.6 66 -9 15.8 -3.377 -0.133
16:56 1021 30.15 850 25.1 -3.6 25.5 67 -8.9 16 -3.343 -0.132
16:57 1021 30.15 850 25.1 -3.5 25.7 63 -9.6 14.8 -3.252 -0.128
16:58 1021 30.15 850 25.1 -4 24.7 63 -10.1 13.7 -3.665 -0.144
16:59 1021 30.15 850 25.1 -4.9 23.2 66 -10.2 13.6 -4.299 -0.169
17:00 1021 30.15 850 25.1 -5.5 22.1 71 -10 14.1 -4.778 -0.188
17:01 1021 30.15 850 25.1 -5.8 21.6 70 -10.3 13.4 -5.14 -0.202
17:02 1021 30.15 850 25.1 -5.9 21.3 73 -10 14 -5.367 -0.211
17:03 1021 30.15 850 25.1 -5.7 21.7 70 -10.4 13.3 -5.281 -0.208
17:04 1021 30.15 850 25.1 -5.8 21.6 71 -10.2 13.7 -5.473 -0.215
17:05 1021 30.15 850 25.1 -5.7 21.7 70 -10.3 13.5 -5.359 -0.211
17:06 1021 30.15 850 25.1 -5.8 21.5 69 -10.7 12.8 -5.5 -0.217
17:07 1021 30.15 850 25.1 -6.2 20.9 73 -10.3 13.5 -5.805 -0.229
17:08 1021 30.15 850 25.1 -6.2 20.8 74 -10.1 13.8 -5.811 -0.229
17:09 1021 30.15 850 25.1 -6.2 20.9 74 -10 14 -5.731 -0.226
17:10 1021 30.15 850 25.1 -6 21.3 75 -9.8 14.4 -5.606 -0.221
17:11 1021 30.15 850 25.1 -5.8 21.5 72 -10 13.9 -5.493 -0.216
17:12 1021 30.15 850 25.1 -5.7 21.8 75 -9.5 14.9 -5.367 -0.211
17:13 1021 30.15 850 25.1 -5.3 22.4 73 -9.4 15 -5.039 -0.198
17:14 1021 30.15 850 25.1 -4.8 23.4 69 -9.6 14.7 -4.518 -0.178
17:15 1021 30.15 850 25.1 -4.6 23.7 64 -10.4 13.3 -4.404 -0.173
17:16 1021 30.15 850 25.1 -5 23 67 -10.2 13.7 -4.665 -0.184
17:17 1021 30.15 850 25.1 -5.3 22.4 70 -10 14 -4.908 -0.193
17:18 1021 30.15 850 25.1 -5.5 22.1 71 -10 14 -5.049 -0.199
17:19 1021 30.15 850 25.1 -5.6 21.8 72 -10 14.1 -5.202 -0.205
17:20 1021 30.15 850 25.1 -5.7 21.8 75 -9.5 14.9 -5.23 -0.206
17:21 1021 30.15 850 25.1 -5.4 22.2 74 -9.4 15 -5.1 -0.201
17:22 1021 30.15 850 25.1 -5.2 22.6 74 -9.2 15.4 -4.873 -0.192
17:23 1021 30.15 850 25.1 -5.1 22.9 71 -9.6 14.8 -4.771 -0.188
17:24 1021 30.15 850 25.1 -5 23 71 -9.4 15 -4.726 -0.186
17:25 1021 30.15 850 25.1 -4.9 23.2 70 -9.5 14.9 -4.544 -0.179
17:26 1021 30.15 850 25.1 -4.7 23.5 68 -9.7 14.5 -4.482 -0.176
17:27 1021 30.15 850 25.1 -4.7 23.5 70 -9.5 15 -4.418 -0.174
17:28 1021 30.15 850 25.1 -4.7 23.5 67 -9.9 14.1 -4.407 -0.174
17:29 1021 30.15 850 25.1 -4.9 23.2 67 -10 13.9 -4.56 -0.18
17:30 1021 30.15 850 25.1 -5.2 22.7 69 -10 14.1 -4.763 -0.188
17:31 1021 30.15 850 25.1 -5.3 22.4 69 -10.2 13.6 -4.899 -0.193
17:32 1021 30.15 850 25.1 -5.6 21.9 72 -9.8 14.3 -5.085 -0.2
17:33 1021 30.15 850 25.1 -5.8 21.6 72 -10 14 -5.215 -0.205
17:34 1021 30.15 850 25.1 -5.7 21.7 75 -9.5 14.9 -5.141 -0.202
17:35 1021 30.15 850 25.1 -5.5 22.1 75 -9.2 15.5 -5.027 -0.198
17:36 1021 30.15 850 25.1 -5.2 22.7 78 -8.5 16.7 -4.767 -0.188
17:37 1021 30.15 850 25.1 -4.6 23.7 74 -8.5 16.6 -4.33 -0.17
17:38 1021 30.15 850 25.1 -4.2 24.4 72 -8.5 16.7 -3.973 -0.156
17:39 1021 30.15 850 25.1 -4.1 24.7 69 -8.9 16 -3.882 -0.153
17:40 1021 30.15 850 25.1 -4.3 24.3 69 -9.2 15.5 -4.132 -0.163
17:41 1021 30.15 850 25.1 -4.6 23.6 69 -9.4 15 -4.482 -0.176
17:42 1021 30.15 850 25.1 -5 23 72 -9.4 15.1 -4.816 -0.19
17:43 1021 30.15 850 25.1 -5.1 22.9 76 -8.7 16.4 -4.805 -0.189
17:44 1021 30.15 850 25.1 -4.5 23.8 71 -9 15.9 -4.283 -0.169
17:45 1021 30.15 850 25.1 -4.4 24.1 67 -9.6 14.8 -4.231 -0.167
17:46 1021 30.15 850 25.1 -4.9 23.2 70 -9.6 14.7 -4.622 -0.182
17:47 1021 30.15 850 25.1 -4.9 23.1 73 -9 15.8 -4.667 -0.184
17:48 1021 30.15 850 25.1 -4.5 23.8 70 -9.2 15.5 -4.309 -0.17
17:49 1021 30.15 850 25.1 -4.6 23.7 66 -10 14 -4.423 -0.174
17:50 1021 30.15 850 25.1 -5 23.1 73 -9.1 15.7 -4.711 -0.185
17:51 1021 30.15 850 25.1 -4.6 23.6 73 -8.8 16.2 -4.388 -0.173
17:52 1021 30.15 850 25.1 -4.3 24.3 71 -8.7 16.4 -3.98 -0.157
17:53 1021 30.15 850 25.1 -4.1 24.7 65 -9.7 14.5 -3.832 -0.151
17:54 1021 30.15 850 25.1 -4.7 23.6 70 -9.4 15.2 -4.427 -0.174
17:55 1021 30.15 850 25.1 -5.1 22.9 74 -9.1 15.7 -4.749 -0.187
17:56 1021 30.15 850 25.1 -4.9 23.2 74 -8.8 16.1 -4.539 -0.179
17:57 1021 30.15 850 25.1 -4.4 24 70 -9 15.7 -4.177 -0.164
17:58 1021 30.15 850 25.1 -4.5 24 70 -9.1 15.7 -4.216 -0.166
17:59 1021 30.15 850 25.1 -4.8 23.4 72 -9 15.8 -4.459 -0.176
18:00 1021 30.15 850 25.1 -5 23.1 73 -9.2 15.5 -4.618 -0.182
18:01 1021 30.15 850 25.1 -5.1 22.8 75 -8.9 16 -4.737 -0.186
18:02 1021 30.15 850 25.1 -5 22.9 74 -9 15.7 -4.691 -0.185
18:03 1021 30.15 850 25.1 -5 23 74 -8.9 15.9 -4.652 -0.183
18:04 1021 30.15 850 25.1 -4.9 23.1 74 -9 15.9 -4.555 -0.179
18:05 1021 30.15 850 25.1 -4.9 23.2 73 -9 15.8 -4.538 -0.179
18:06 1021 30.15 850 25.1 -4.9 23.1 74 -8.9 15.9 -4.555 -0.179
18:07 1021 30.15 850 25.1 -4.8 23.3 73 -8.9 15.9 -4.481 -0.176
18:08 1021 30.15 850 25.1 -4.8 23.3 72 -9.1 15.7 -4.458 -0.176
18:09 1021 30.15 850 25.1 -4.9 23.2 74 -8.8 16.1 -4.492 -0.177
18:10 1021 30.15 850 25.1 -4.8 23.4 74 -8.8 16.2 -4.356 -0.171
18:11 1021 30.15 850 25.1 -4.8 23.4 71 -9.2 15.5 -4.362 -0.172
18:12 1021 30.15 850 25.1 -5 23.1 74 -9 15.8 -4.503 -0.177
18:13 1021 30.15 850 25.1 -5 23 75 -8.8 16.1 -4.549 -0.179
18:14 1021 30.15 850 25.1 -4.9 23.1 72 -9.3 15.3 -4.503 -0.177
18:15 1021 30.15 850 25.1 -5.1 22.9 73 -9.2 15.4 -4.673 -0.184
18:16 1021 30.15 850 25.1 -5.2 22.7 73 -9.2 15.4 -4.82 -0.19
18:17 1021 30.15 850 25.1 -5.2 22.7 73 -9.3 15.2 -4.843 -0.191
18:18 1021 30.15 850 25.1 -5.2 22.7 71 -9.7 14.6 -4.815 -0.19
18:19 1021 30.15 850 25.1 -5.3 22.5 72 -9.5 14.9 -4.945 -0.195
18:20 1021 30.15 850 25.1 -5.2 22.6 73 -9.4 15.1 -4.849 -0.191
18:21 1021 30.15 850 25.1 -5 22.9 71 -9.5 14.9 -4.73 -0.186
18:22 1021 30.15 850 25.1 -5 23.1 69 -9.8 14.3 -4.662 -0.184
18:23 1021 30.15 850 25.1 -5.1 22.8 70 -9.8 14.4 -4.849 -0.191
18:24 1021 30.15 850 25.1 -5.2 22.6 71 -9.7 14.5 -4.9 -0.193
18:25 1021 30.15 850 25.1 -5.2 22.7 70 -9.9 14.3 -4.853 -0.191
18:26 1021 30.15 850 25.1 -5.4 22.3 70 -10 14.1 -5.085 -0.2
18:27 1021 30.15 850 25.1 -5.6 21.9 75 -9.3 15.2 -5.204 -0.205
18:28 1021 30.15 850 25.1 -5.4 22.2 75 -9.2 15.5 -5.056 -0.199
18:29 1021 30.15 850 25.1 -5.2 22.6 74 -9.2 15.5 -4.897 -0.193
18:30 1021 30.15 850 25.1 -5.2 22.7 74 -9.2 15.5 -4.852 -0.191
18:31 1021 30.15 850 25.1 -5.2 22.6 74 -9.1 15.6 -4.857 -0.191
18:32 1021 30.15 850 25.1 -5.2 22.6 75 -8.9 16 -4.823 -0.19
18:33 1021 30.15 850 25.1 -5 23 75 -8.9 16.1 -4.675 -0.184
18:34 1021 30.15 850 25.1 -4.8 23.4 74 -8.7 16.4 -4.454 -0.175
18:35 1021 30.15 850 25.1 -4.4 24.2 73 -8.6 16.6 -4.052 -0.16
18:36 1021 30.15 850 25.1 -3.9 25 71 -8.4 16.8 -3.638 -0.143
18:37 1021 30.15 850 25.1 -3.5 25.6 69 -8.4 16.8 -3.309 -0.13
18:38 1021 30.15 850 25.1 -3.4 26 68 -8.4 16.8 -3.145 -0.124
18:39 1021 30.15 850 25.1 -3.4 26 68 -8.4 16.9 -3.122 -0.123
18:40 1021 30.15 850 25.1 -3.2 26.3 68 -8.2 17.2 -2.963 -0.117
18:41 1021 30.15 850 25.1 -3 26.6 64 -9 15.8 -2.793 -0.11
18:42 1021 30.15 850 25.1 -3.7 25.4 64 -9.5 14.9 -3.444 -0.136
18:43 1021 30.15 850 25.1 -4.5 23.8 68 -9.5 14.8 -4.226 -0.166
18:44 1021 30.15 850 25.1 -5.1 22.7 75 -9 15.8 -4.77 -0.188
18:45 1021 30.15 850 25.1 -5 23 74 -8.8 16.1 -4.634 -0.182
18:46 1021 30.15 850 25.1 -4.4 24.1 72 -8.7 16.4 -4.129 -0.163
18:47 1021 30.15 850 25.1 -4 24.9 69 -8.9 16 -3.772 -0.149
18:48 1021 30.15 850 25.1 -4.2 24.4 68 -9.3 15.3 -3.937 -0.155
18:49 1021 30.15 850 25.1 -4.7 23.5 71 -9.3 15.3 -4.356 -0.171
18:50 1021 30.15 850 25.1 -4.9 23.1 69 -9.8 14.3 -4.616 -0.182
18:51 1021 30.15 850 25.1 -5.3 22.5 74 -9.3 15.3 -4.883 -0.192
18:52 1021 30.15 850 25.1 -5.3 22.5 71 -9.7 14.5 -4.951 -0.195
18:53 1021 30.15 850 25.1 -5.3 22.4 73 -9.5 15 -5.03 -0.198
18:54 1021 30.15 850 25.1 -5.4 22.3 70 -10 14 -5.109 -0.201
18:55 1021 30.15 850 25.1 -5.7 21.7 73 -9.8 14.3 -5.443 -0.214
18:56 1021 30.15 850 25.1 -6 21.3 80 -8.8 16.2 -5.585 -0.22
18:57 1021 30.15 850 25.1 -5.1 22.8 73 -9.3 15.2 -4.706 -0.185
18:58 1021 30.15 850 25.1 -4.8 23.3 70 -9.5 14.9 -4.654 -0.183
18:59 1021 30.15 850 25.1 -5.1 22.8 71 -9.6 14.6 -4.921 -0.194
19:00 1021 30.15 850 25.1 -5 23 77 -8.3 17 -4.779 -0.188
19:01 1021 30.15 850 25.1 -3.9 24.9 70 -8.6 16.5 -3.737 -0.147
19:02 1021 30.15 850 25.1 -3.7 25.3 64 -9.5 14.9 -3.742 -0.147
19:03 1021 30.15 850 25.1 -4 24.8 67 -9.3 15.3 -3.861 -0.152
19:04 1021 30.15 850 25.1 -3.7 25.3 66 -9.1 15.6 -3.577 -0.141
19:05 1021 30.15 850 25.1 -3.6 25.6 66 -9.1 15.6 -3.441 -0.135
19:06 1021 30.15 850 25.1 -3.1 26.4 61 -9.6 14.8 -2.976 -0.117
19:07 1021 30.15 850 25.1 -3 26.7 62 -9.2 15.5 -2.743 -0.108
19:08 1021 30.15 850 25.1 -2.7 27.2 62 -9 15.8 -2.488 -0.098
19:09 1021 30.15 850 25.1 -2.5 27.5 62 -8.8 16.1 -2.289 -0.09
19:10 1021 30.15 850 25.1 -2.2 28 62 -8.6 16.5 -1.994 -0.079
19:11 1021 30.15 850 25.1 -2 28.4 62 -8.4 16.9 -1.717 -0.068
19:12 1021 30.15 851 25.13 -1.5 29.3 59 -8.4 16.9 -1.337 -0.053
19:13 1021 30.15 850 25.1 -1.1 30.1 57 -8.5 16.8 -0.934 -0.037
19:14 1021 30.15 851 25.13 -0.9 30.5 54 -9 15.8 -0.77 -0.03
19:15 1021 30.15 851 25.13 -1.3 29.7 56 -9 15.8 -1.166 -0.046
19:16 1021 30.15 851 25.13 -2 28.5 59 -8.9 16.1 -1.795 -0.071
19:17 1021 30.15 851 25.13 -2.1 28.2 61 -8.6 16.5 -1.846 -0.073
19:18 1021 30.15 851 25.13 -1.7 28.9 59 -8.6 16.5 -1.438 -0.057
19:19 1021 30.15 850 25.1 -1.2 29.8 58 -8.5 16.7 -1.052 -0.041
19:20 1021 30.15 851 25.13 -0.9 30.4 55 -8.9 16 -0.741 -0.029
19:21 1021 30.15 851 25.13 -1.2 29.9 55 -9 15.7 -0.984 -0.039
19:22 1021 30.15 850 25.1 -1 30.2 54 -9.1 15.5 -0.757 -0.03
19:23 1021 30.15 851 25.13 -0.7 30.8 53 -9.2 15.5 -0.474 -0.019
19:24 1021 30.15 850 25.1 -1.1 30 56 -8.8 16.2 -0.989 -0.039
19:25 1021 30.15 850 25.1 -1.6 29.2 55 -9.5 14.9 -1.363 -0.054
19:26 1021 30.15 851 25.13 -2.1 28.2 59 -9.2 15.5 -1.953 -0.077
19:27 1021 30.15 851 25.13 -2 28.3 59 -8.9 15.9 -1.8 -0.071
19:28 1021 30.15 851 25.13 -1.3 29.6 54 -9.4 15.1 -1.142 -0.045
19:29 1021 30.15 851 25.13 -1.3 29.8 52 -9.9 14.2 -1.097 -0.043
19:30 1021 30.15 851 25.13 -1.6 29 58 -8.8 16.2 -1.533 -0.06
19:31 1021 30.15 851 25.13 -1.8 28.7 58 -9 15.8 -1.697 -0.067
19:32 1021 30.15 851 25.13 -1.7 28.9 56 -9.5 15 -1.533 -0.06
19:33 1021 30.15 851 25.13 -1.6 29 57 -9.1 15.6 -1.459 -0.057
19:34 1021 30.15 851 25.13 -1.5 29.4 54 -9.7 14.6 -1.255 -0.049
19:35 1021 30.15 851 25.13 -1.8 28.8 58 -9.1 15.6 -1.561 -0.061
19:36 1021 30.15 851 25.13 -1.6 29.1 57 -9 15.8 -1.419 -0.056
19:37 1021 30.15 851 25.13 -1.4 29.5 58 -8.6 16.5 -1.193 -0.047
19:38 1021 30.15 851 25.13 -0.6 30.9 54 -8.7 16.3 -0.377 -0.015
19:39 1021 30.15 851 25.13 0.1 32.1 52 -8.6 16.5 0.332 0.013
19:40 1021 30.15 851 25.13 0.4 32.7 47 -9.5 14.8 0.632 0.025
19:41 1021 30.15 851 25.13 -0.3 31.5 50 -9.4 15 -0.076 -0.003
19:42 1021 30.15 851 25.13 -0.5 31 53 -9 15.8 -0.382 -0.015
19:43 1021 30.15 851 25.13 -0.6 30.9 53 -9.1 15.6 -0.433 -0.017
19:44 1021 30.15 851 25.13 -0.5 31 49 -9.9 14.2 -0.405 -0.016
19:45 1021 30.15 851 25.13 -1.4 29.5 56 -8.9 15.9 -1.261 -0.05
19:46 1021 30.15 851 25.13 -1.2 29.8 56 -9 15.7 -1.13 -0.044
19:47 1021 30.15 851 25.13 -1.2 29.9 50 -10.4 13.2 -1.102 -0.043
19:48 1021 30.15 851 25.13 -2 28.5 51 -10.9 12.4 -1.912 -0.075
19:49 1021 30.15 851 25.13 -3.3 26.1 57 -10.7 12.8 -2.938 -0.116
19:50 1021 30.15 851 25.13 -4.4 24.1 63 -10.3 13.4 -3.93 -0.155
19:51 1021 30.15 851 25.13 -4.6 23.7 64 -10.4 13.3 -4.169 -0.164
19:52 1021 30.15 851 25.13 -4.8 23.4 65 -10.4 13.3 -4.441 -0.175
19:53 1021 30.15 851 25.13 -5.1 22.8 66 -10.6 13 -4.735 -0.186
19:54 1021 30.15 851 25.13 -5.6 21.9 64 -11.4 11.4 -5.183 -0.204
19:55 1021 30.15 851 25.13 -6.3 20.7 65 -11.7 10.9 -5.716 -0.225
19:56 1021 30.15 851 25.13 -6.9 19.5 68 -11.8 10.7 -6.277 -0.247
19:57 1021 30.15 851 25.13 -7.4 18.7 71 -11.8 10.7 -6.684 -0.263
19:58 1021 30.15 851 25.13 -7.7 18.1 72 -11.9 10.5 -7.04 -0.277
19:59 1021 30.15 851 25.13 -7.8 17.9 75 -11.5 11.2 -7.21 -0.284
20:00 1021 30.15 851 25.13 -7.8 18 72 -11.9 10.6 -7.22 -0.284
20:01 1021 30.15 851 25.13 -7.9 17.9 76 -11.4 11.5 -7.34 -0.289
20:02 1021 30.15 851 25.13 -7.8 18.1 78 -11 12.2 -7.23 -0.285
20:03 1021 30.15 851 25.13 -7.4 18.7 77 -10.8 12.5 -6.917 -0.272
20:04 1021 30.15 851 25.13 -7.1 19.1 75 -10.9 12.4 -6.798 -0.268
20:05 1022 30.18 851 25.13 -7.2 19 73 -11.2 11.8 -6.905 -0.272
20:06 1021 30.15 851 25.13 -7.5 18.5 75 -11.1 12 -7.11 -0.28
20:07 1021 30.15 851 25.13 -7.5 18.5 76 -11 12.1 -7.09 -0.279
20:08 1021 30.15 851 25.13 -7.1 19.3 76 -10.6 12.9 -6.695 -0.264
20:09 1021 30.15 851 25.13 -6.1 21 74 -10 14 -5.874 -0.231
20:10 1021 30.15 851 25.13 -5.4 22.3 66 -10.8 12.5 -5.222 -0.206
20:11 1021 30.15 851 25.13 -5.8 21.6 68 -10.7 12.7 -5.471 -0.215
20:12 1021 30.15 851 25.13 -6.1 20.9 70 -10.8 12.6 -5.726 -0.225
20:13 1022 30.18 851 25.13 -6.5 20.4 70 -11 12.2 -5.976 -0.235
20:14 1021 30.15 851 25.13 -6.6 20 72 -10.8 12.5 -6.129 -0.241
20:15 1022 30.18 851 25.13 -6.7 19.9 70 -11.3 11.7 -6.259 -0.246
20:16 1022 30.18 851 25.13 -7 19.3 73 -11 12.1 -6.576 -0.259
20:17 1021 30.15 851 25.13 -7.2 19.1 76 -10.8 12.6 -6.684 -0.263
20:18 1022 30.18 851 25.13 -7 19.4 74 -10.8 12.5 -6.514 -0.256
20:19 1022 30.18 851 25.13 -6.9 19.6 74 -10.7 12.7 -6.491 -0.256
20:20 1022 30.18 851 25.13 -6.9 19.6 74 -10.8 12.6 -6.468 -0.255
20:21 1022 30.18 851 25.13 -6.8 19.7 74 -10.7 12.7 -6.474 -0.255
20:22 1021 30.15 851 25.13 -6.9 19.7 75 -10.6 12.9 -6.463 -0.254
20:23 1021 30.15 851 25.13 -6.8 19.7 76 -10.4 13.2 -6.446 -0.254
20:24 1021 30.15 851 25.13 -6.7 19.9 76 -10.3 13.5 -6.304 -0.248
20:25 1021 30.15 851 25.13 -6.5 20.4 75 -10.1 13.8 -6.117 -0.241
20:26 1021 30.15 851 25.13 -6.2 20.8 75 -10 14 -5.89 -0.232
20:27 1021 30.15 851 25.13 -6 21.1 73 -10.2 13.7 -5.669 -0.223
20:28 1021 30.15 851 25.13 -6.1 21.1 72 -10.4 13.3 -5.698 -0.224
20:29 1021 30.15 851 25.13 -6.2 20.9 71 -10.6 12.9 -5.828 -0.229
20:30 1021 30.15 851 25.13 -6.6 20.2 70 -11.1 11.9 -6.14 -0.242
20:31 1021 30.15 851 25.13 -7 19.4 73 -11.1 12 -6.542 -0.258
20:32 1021 30.15 851 25.13 -7.2 19 79 -10.2 13.6 -6.706 -0.264
20:33 1021 30.15 851 25.13 -6.9 19.5 78 -10.2 13.6 -6.514 -0.256
20:34 1021 30.15 851 25.13 -6.6 20.1 77 -10.1 13.9 -6.304 -0.248
20:35 1021 30.15 851 25.13 -6.4 20.4 77 -9.9 14.2 -6.111 -0.241
20:36 1021 30.15 851 25.13 -6.3 20.7 77 -9.7 14.6 -5.953 -0.234
20:37 1021 30.15 851 25.13 -5.9 21.4 76 -9.5 14.9 -5.584 -0.22
20:38 1021 30.15 851 25.13 -5.8 21.6 72 -10 14 -5.471 -0.215
20:39 1021 30.15 850 25.1 -6.1 21.1 74 -9.9 14.1 -5.783 -0.228
20:40 1021 30.15 850 25.1 -6.2 20.8 78 -9.4 15.1 -5.907 -0.233
20:41 1021 30.15 850 25.1 -5.9 21.3 76 -9.5 15 -5.596 -0.22
20:42 1021 30.15 850 25.1 -5.8 21.6 74 -9.7 14.6 -5.494 -0.216
20:43 1021 30.15 850 25.1 -5.8 21.5 75 -9.7 14.6 -5.504 -0.217
20:44 1021 30.15 850 25.1 -5.8 21.5 73 -9.9 14.2 -5.532 -0.218
20:45 1021 30.15 850 25.1 -5.9 21.4 74 -9.8 14.4 -5.583 -0.22
20:46 1021 30.15 850 25.1 -5.9 21.4 75 -9.6 14.7 -5.582 -0.22
20:47 1021 30.15 850 25.1 -5.8 21.5 73 -10 14 -5.548 -0.218
20:48 1021 30.15 850 25.1 -6 21.3 74 -9.8 14.4 -5.605 -0.221
20:49 1021 30.15 850 25.1 -5.9 21.4 75 -9.6 14.7 -5.508 -0.217
20:50 1021 30.15 850 25.1 -5.5 22.2 74 -9.4 15 -5.173 -0.204
20:51 1021 30.15 850 25.1 -5 23 67 -10.2 13.7 -4.896 -0.193
20:52 1021 30.15 850 25.1 -5.3 22.4 72 -9.6 14.8 -5.167 -0.203
20:53 1021 30.15 850 25.1 -5.2 22.6 70 -9.8 14.3 -5.003 -0.197
20:54 1021 30.15 850 25.1 -5.4 22.2 69 -10.3 13.5 -5.331 -0.21
20:55 1021 30.15 850 25.1 -5.8 21.5 76 -9.4 15 -5.643 -0.222
20:56 1021 30.15 850 25.1 -5.4 22.2 71 -9.9 14.1 -5.28 -0.208
20:57 1021 30.15 850 25.1 -5.6 22 70 -10.2 13.6 -5.405 -0.213
20:58 1021 30.15 850 25.1 -6 21.3 71 -10.4 13.2 -5.739 -0.226
20:59 1021 30.15 850 25.1 -6.3 20.7 76 -9.9 14.2 -5.977 -0.235
21:00 1021 30.15 850 25.1 -6 21.2 75 -9.8 14.4 -5.676 -0.223
21:01 1021 30.15 850 25.1 -5.7 21.7 73 -9.9 14.2 -5.483 -0.216
21:02 1021 30.15 850 25.1 -5.6 22 75 -9.4 15.1 -5.285 -0.208
21:03 1021 30.15 850 25.1 -5.1 22.8 70 -9.7 14.5 -4.939 -0.194
21:04 1021 30.15 850 25.1 -5.3 22.5 70 -9.8 14.3 -5.064 -0.199
21:05 1021 30.15 850 25.1 -5.6 22 70 -10.3 13.5 -5.353 -0.211
21:06 1021 30.15 850 25.1 -5.9 21.3 74 -9.8 14.3 -5.659 -0.223
21:07 1021 30.15 850 25.1 -6 21.2 70 -10.6 13 -5.732 -0.226
21:08 1021 30.15 850 25.1 -6.4 20.4 72 -10.7 12.8 -6.135 -0.242
21:09 1021 30.15 850 25.1 -6.8 19.8 74 -10.6 13 -6.475 -0.255
21:10 1021 30.15 850 25.1 -6.7 19.9 77 -10 13.9 -6.361 -0.25
21:11 1021 30.15 850 25.1 -6.3 20.6 75 -10.1 13.8 -6.072 -0.239
21:12 1021 30.15 850 25.1 -6.2 20.8 73 -10.2 13.6 -5.97 -0.235
21:13 1021 30.15 850 25.1 -6.4 20.6 75 -10.2 13.7 -6.123 -0.241
21:14 1021 30.15 850 25.1 -6.4 20.4 72 -10.7 12.8 -6.202 -0.244
21:15 1021 30.15 850 25.1 -6.6 20.1 75 -10.4 13.2 -6.361 -0.25
21:16 1021 30.15 850 25.1 -6.6 20.1 72 -10.8 12.5 -6.355 -0.25
21:17 1021 30.15 850 25.1 -6.9 19.5 71 -11.3 11.7 -6.712 -0.264
21:18 1021 30.15 850 25.1 -7.4 18.8 77 -10.7 12.7 -7.09 -0.279
21:19 1021 30.15 850 25.1 -7.3 18.9 77 -10.7 12.7 -7.04 -0.277
21:20 1021 30.15 850 25.1 -7.2 19 74 -11 12.2 -6.973 -0.275
21:21 1021 30.15 850 25.1 -7 19.4 74 -10.9 12.4 -6.797 -0.268
21:22 1021 30.15 850 25.1 -6.7 20 75 -10.4 13.3 -6.576 -0.259
21:23 1021 30.15 850 25.1 -6.5 20.4 72 -10.7 12.7 -6.401 -0.252
21:24 1021 30.15 850 25.1 -6.6 20.1 71 -11 12.2 -6.558 -0.258
21:25 1021 30.15 850 25.1 -6.7 19.9 72 -10.9 12.4 -6.643 -0.262
21:26 1021 30.15 850 25.1 -6.9 19.6 68 -11.9 10.6 -6.836 -0.269
21:27 1021 30.15 850 25.1 -7.6 18.3 73 -11.7 10.9 -7.4 -0.291
21:28 1021 30.15 850 25.1 -8 17.6 73 -12 10.3 -7.76 -0.306
21:29 1021 30.15 850 25.1 -8.3 17.1 75 -12 10.4 -8.08 -0.318
21:30 1021 30.15 850 25.1 -8.5 16.8 75 -12.1 10.3 -8.17 -0.322
21:31 1021 30.15 850 25.1 -8.6 16.5 77 -11.9 10.5 -8.29 -0.326
21:32 1021 30.15 850 25.1 -8.4 16.8 81 -11.1 12 -8.14 -0.32
21:33 1021 30.15 850 25.1 -8.1 17.5 74 -12 10.4 -7.83 -0.308
21:34 1021 30.15 850 25.1 -8.2 17.3 77 -11.5 11.3 -7.89 -0.311
21:35 1021 30.15 850 25.1 -7.7 18.2 75 -11.3 11.6 -7.42 -0.292
21:36 1021 30.15 850 25.1 -7.5 18.6 71 -11.9 10.6 -7.32 -0.288
21:37 1021 30.15 850 25.1 -7.8 17.9 74 -11.7 11 -7.62 -0.3
21:38 1021 30.15 850 25.1 -7.9 17.8 75 -11.6 11.1 -7.61 -0.3
21:39 1021 30.15 850 25.1 -7.9 17.9 77 -11.2 11.9 -7.57 -0.298
21:40 1021 30.15 850 25.1 -7.5 18.4 75 -11.2 11.9 -7.24 -0.285
21:41 1021 30.15 850 25.1 -7.2 19 78 -10.4 13.3 -6.93 -0.273
21:42 1021 30.15 850 25.1 -6.5 20.3 75 -10.3 13.5 -6.226 -0.245
21:43 1021 30.15 850 25.1 -5.9 21.3 71 -10.3 13.4 -5.739 -0.226
21:44 1021 30.15 850 25.1 -5.8 21.5 68 -10.8 12.5 -5.654 -0.223
21:45 1021 30.15 850 25.1 -6 21.2 71 -10.4 13.3 -5.755 -0.227
21:46 1021 30.15 850 25.1 -5.4 22.2 72 -9.7 14.5 -5.172 -0.204
21:47 1021 30.15 850 25.1 -4.6 23.8 68 -9.6 14.8 -4.384 -0.173
21:48 1021 30.15 850 25.1 -4.2 24.5 63 -10.1 13.8 -4.054 -0.16
21:49 1021 30.15 850 25.1 -4.4 24.1 64 -10.2 13.6 -4.242 -0.167
21:50 1021 30.15 850 25.1 -4.5 23.8 65 -10.2 13.7 -4.31 -0.17
21:51 1021 30.15 850 25.1 -4.7 23.5 64 -10.6 12.9 -4.53 -0.178
21:52 1021 30.15 850 25.1 -5.1 22.8 68 -10.2 13.7 -4.854 -0.191
21:53 1021 30.15 850 25.1 -5.2 22.6 65 -10.7 12.7 -5.001 -0.197
21:54 1021 30.15 850 25.1 -5.6 22 68 -10.6 13 -5.358 -0.211
21:55 1021 30.15 850 25.1 -5.5 22.2 72 -9.7 14.5 -5.199 -0.205
21:56 1021 30.15 850 25.1 -4.6 23.7 68 -9.7 14.5 -4.439 -0.175
21:57 1021 30.15 850 25.1 -4.3 24.2 64 -10.2 13.7 -4.19 -0.165
21:58 1021 30.15 850 25.1 -4.5 23.8 65 -10.1 13.8 -4.422 -0.174
21:59 1021 30.15 850 25.1 -4.7 23.5 65 -10.4 13.2 -4.581 -0.18
22:00 1021 30.15 850 25.1 -5 23.1 66 -10.3 13.4 -4.813 -0.189
22:01 1021 30.15 850 25.1 -5.1 22.8 65 -10.7 12.8 -4.949 -0.195
22:02 1021 30.15 850 25.1 -5.4 22.3 65 -10.9 12.4 -5.114 -0.201
22:03 1021 30.15 850 25.1 -5.7 21.7 65 -11.4 11.5 -5.426 -0.214
22:04 1021 30.15 850 25.1 -6.2 20.8 70 -10.9 12.4 -5.822 -0.229
22:05 1021 30.15 850 25.1 -6.4 20.5 71 -10.9 12.5 -5.947 -0.234
22:06 1021 30.15 850 25.1 -6.3 20.7 71 -10.7 12.8 -5.907 -0.233
22:07 1021 30.15 850 25.1 -6.1 21 74 -10.1 13.8 -5.698 -0.224
22:08 1021 30.15 850 25.1 -5.6 22 72 -9.8 14.4 -5.261 -0.207
22:09 1021 30.15 850 25.1 -5 23 68 -10 14 -4.825 -0.19
22:10 1021 30.15 850 25.1 -4.7 23.5 68 -9.7 14.5 -4.586 -0.181
22:11 1021 30.15 850 25.1 -4.4 24.1 66 -9.8 14.4 -4.263 -0.168
22:12 1021 30.15 850 25.1 -4.2 24.4 66 -9.7 14.5 -4.099 -0.161
22:13 1021 30.15 850 25.1 -4.1 24.6 65 -9.7 14.6 -4.048 -0.159
22:14 1021 30.15 850 25.1 -4.1 24.7 67 -9.4 15.1 -3.889 -0.153
22:15 1021 30.15 850 25.1 -3.8 25.1 64 -9.7 14.6 -3.645 -0.144
22:16 1021 30.15 850 25.1 -3.9 24.9 62 -10.1 13.8 -3.725 -0.147
22:17 1021 30.15 850 25.1 -4.4 24.1 65 -10.1 13.9 -4.116 -0.162
22:18 1021 30.15 850 25.1 -4.7 23.6 65 -10.3 13.4 -4.32 -0.17
22:19 1021 30.15 850 25.1 -4.9 23.3 67 -10 14 -4.473 -0.176
22:20 1021 30.15 850 25.1 -4.9 23.1 68 -10 14 -4.541 -0.179
22:21 1021 30.15 850 25.1 -4.9 23.2 69 -9.8 14.4 -4.467 -0.176
22:22 1021 30.15 850 25.1 -4.6 23.7 67 -9.8 14.4 -4.309 -0.17
22:23 1021 30.15 850 25.1 -4.3 24.2 67 -9.6 14.7 -4.053 -0.16
22:24 1021 30.15 850 25.1 -4 24.8 66 -9.5 14.9 -3.691 -0.145
22:25 1021 30.15 850 25.1 -3.5 25.6 64 -9.5 14.9 -3.288 -0.129
22:26 1021 30.15 850 25.1 -3.1 26.4 62 -9.4 15.1 -2.869 -0.113
22:27 1021 30.15 850 25.1 -2.8 26.9 61 -9.3 15.2 -2.551 -0.1
22:28 1021 30.15 850 25.1 -2.8 26.9 60 -9.5 14.9 -2.574 -0.101
22:29 1021 30.15 850 25.1 -3.2 26.2 61 -9.8 14.4 -2.84 -0.112
22:30 1021 30.15 850 25.1 -3.9 25 65 -9.5 14.8 -3.328 -0.131
22:31 1021 30.15 850 25.1 -4.2 24.5 65 -9.8 14.3 -3.691 -0.145
22:32 1021 30.15 850 25.1 -4.6 23.7 67 -9.8 14.3 -4.11 -0.162
22:33 1021 30.15 850 25.1 -4.7 23.6 69 -9.6 14.7 -4.218 -0.166
22:34 1021 30.15 850 25.1 -4.3 24.2 66 -9.7 14.6 -3.997 -0.157
22:35 1021 30.15 850 25.1 -4.2 24.5 64 -10 14.1 -3.929 -0.155
22:36 1021 30.15 850 25.1 -4.6 23.7 66 -10.1 13.9 -4.303 -0.169
22:37 1021 30.15 850 25.1 -5.1 22.9 68 -10.1 13.8 -4.683 -0.184
22:38 1021 30.15 850 25.1 -5.4 22.2 68 -10.4 13.3 -4.983 -0.196
22:39 1021 30.15 850 25.1 -5.7 21.7 71 -10.2 13.6 -5.238 -0.206
22:40 1021 30.15 850 25.1 -5.8 21.6 71 -10.3 13.5 -5.283 -0.208
22:41 1021 30.15 850 25.1 -5.7 21.8 70 -10.3 13.5 -5.266 -0.207
22:42 1021 30.15 850 25.1 -5.8 21.6 68 -10.7 12.7 -5.323 -0.21
22:43 1021 30.15 850 25.1 -6.1 21 70 -10.7 12.8 -5.624 -0.221
22:44 1021 30.15 850 25.1 -6.4 20.6 72 -10.7 12.8 -5.799 -0.228
22:45 1021 30.15 850 25.1 -6.4 20.5 73 -10.4 13.2 -5.896 -0.232
22:46 1021 30.15 850 25.1 -6.2 20.8 72 -10.4 13.2 -5.816 -0.229
22:47 1021 30.15 850 25.1 -6.1 21.1 72 -10.3 13.5 -5.692 -0.224
22:48 1021 30.15 850 25.1 -5.8 21.5 73 -9.8 14.3 -5.448 -0.214
22:49 1021 30.15 850 25.1 -5.3 22.5 71 -9.8 14.4 -4.943 -0.195
22:50 1021 30.15 850 25.1 -4.8 23.3 69 -9.8 14.4 -4.564 -0.18
22:51 1021 30.15 850 25.1 -4.5 23.9 64 -10.3 13.5 -4.308 -0.17
22:52 1021 30.15 850 25.1 -4.4 24 66 -9.8 14.3 -4.257 -0.168
22:53 1021 30.15 850 25.1 -4.2 24.5 65 -9.8 14.4 -3.991 -0.157
22:54 1021 30.15 850 25.1 -3.8 25.1 64 -9.7 14.5 -3.673 -0.145
22:55 1021 30.15 850 25.1 -3.6 25.5 63 -9.6 14.6 -3.435 -0.135
22:56 1021 30.15 850 25.1 -3.4 25.9 62 -9.6 14.8 -3.231 -0.127
22:57 1021 30.15 850 25.1 -3.3 26.1 62 -9.5 14.9 -3.027 -0.119
22:58 1021 30.15 850 25.1 -3.1 26.4 59 -9.9 14.1 -2.863 -0.113
22:59 1021 30.15 850 25.1 -3.3 26.1 62 -9.7 14.6 -2.988 -0.118
23:00 1021 30.15 850 25.1 -3.3 26.1 62 -9.6 14.7 -2.971 -0.117
23:01 1021 30.15 850 25.1 -3.2 26.3 62 -9.5 14.8 -2.908 -0.114
23:02 1021 30.15 850 25.1 -3 26.5 61 -9.5 14.9 -2.698 -0.106
23:03 1021 30.15 850 25.1 -2.8 27 61 -9.4 15.1 -2.494 -0.098
23:04 1021 30.15 850 25.1 -2.5 27.4 59 -9.4 15.1 -2.279 -0.09
23:05 1021 30.15 850 25.1 -2.4 27.7 59 -9.4 15.2 -2.12 -0.083
23:06 1021 30.15 850 25.1 -2.4 27.7 59 -9.3 15.2 -2.12 -0.083
23:07 1021 30.15 850 25.1 -2.4 27.8 59 -9.4 15.2 -2.109 -0.083
23:08 1021 30.15 850 25.1 -2.4 27.6 59 -9.3 15.2 -2.166 -0.085
23:09 1021 30.15 850 25.1 -2.5 27.5 59 -9.4 15.1 -2.256 -0.089
23:10 1021 30.15 850 25.1 -2.6 27.3 60 -9.3 15.2 -2.364 -0.093
23:11 1021 30.15 850 25.1 -2.9 26.9 61 -9.4 15.1 -2.562 -0.101
23:12 1021 30.15 850 25.1 -3.1 26.4 62 -9.3 15.2 -2.789 -0.11
23:13 1021 30.15 850 25.1 -3.2 26.3 62 -9.4 15.1 -2.778 -0.109
23:14 1021 30.15 850 25.1 -3.1 26.5 62 -9.3 15.2 -2.744 -0.108
23:15 1021 30.15 850 25.1 -3 26.5 62 -9.4 15 -2.67 -0.105
23:16 1021 30.15 850 25.1 -2.9 26.8 61 -9.5 14.9 -2.568 -0.101
23:17 1021 30.15 850 25.1 -2.8 27 60 -9.5 14.9 -2.46 -0.097
23:18 1021 30.15 850 25.1 -2.8 26.9 61 -9.4 15.1 -2.46 -0.097
23:19 1021 30.15 850 25.1 -3 26.6 61 -9.5 15 -2.647 -0.104
23:20 1021 30.15 850 25.1 -3.5 25.8 64 -9.4 15.1 -3.078 -0.121
23:21 1021 30.15 850 25.1 -3.7 25.3 65 -9.5 15 -3.333 -0.131
23:22 1021 30.15 850 25.1 -3.8 25.2 65 -9.4 15 -3.401 -0.134
23:23 1021 30.15 850 25.1 -3.7 25.3 65 -9.4 15 -3.339 -0.131
23:24 1021 30.15 850 25.1 -3.7 25.4 64 -9.4 15.1 -3.232 -0.127
23:25 1021 30.15 850 25.1 -3.5 25.7 64 -9.4 15 -3.165 -0.125
23:26 1021 30.15 850 25.1 -3.4 25.8 63 -9.4 15 -3.074 -0.121
23:27 1021 30.15 850 25.1 -3.5 25.7 63 -9.6 14.7 -3.131 -0.123
23:28 1021 30.15 850 25.1 -3.7 25.3 65 -9.4 15.2 -3.324 -0.131
23:29 1021 30.15 850 25.1 -3.7 25.3 65 -9.4 15.1 -3.296 -0.13
23:30 1021 30.15 850 25.1 -3.5 25.7 64 -9.4 15 -3.143 -0.124
23:31 1021 30.15 850 25.1 -3.7 25.3 64 -9.6 14.7 -3.404 -0.134
23:32 1021 30.15 850 25.1 -4.2 24.5 66 -9.6 14.6 -3.852 -0.152
23:33 1021 30.15 850 25.1 -4.4 24.1 67 -9.6 14.7 -3.994 -0.157
23:34 1021 30.15 850 25.1 -4.2 24.4 66 -9.6 14.8 -3.915 -0.154
23:35 1021 30.15 850 25.1 -4.2 24.4 67 -9.5 14.9 -3.904 -0.154
23:36 1021 30.15 850 25.1 -4.1 24.6 66 -9.6 14.7 -3.819 -0.15
23:37 1021 30.15 850 25.1 -4.1 24.6 66 -9.6 14.7 -3.785 -0.149
23:38 1021 30.15 850 25.1 -4 24.9 64 -9.8 14.4 -3.627 -0.143
23:39 1021 30.15 850 25.1 -3.6 25.5 62 -10 14 -3.326 -0.131
23:40 1021 30.15 850 25.1 -3.6 25.5 62 -9.9 14.1 -3.327 -0.131
23:41 1021 30.15 850 25.1 -4.1 24.7 63 -10.1 13.9 -3.718 -0.146
23:42 1021 30.15 850 25.1 -4.6 23.8 66 -9.9 14.1 -4.234 -0.167
23:43 1021 30.15 850 25.1 -4.9 23.2 67 -10 13.9 -4.523 -0.178
23:44 1021 30.15 850 25.1 -5.1 22.9 67 -10.2 13.6 -4.744 -0.187
23:45 1021 30.15 850 25.1 -5.4 22.4 68 -10.3 13.5 -4.999 -0.197
23:46 1021 30.15 850 25.1 -5.5 22.1 69 -10.4 13.3 -5.198 -0.205
23:47 1021 30.15 850 25.1 -5.5 22.1 70 -10.2 13.7 -5.192 -0.204
23:48 1021 30.15 850 25.1 -5 23 68 -10.1 13.9 -4.71 -0.185
23:49 1021 30.15 850 25.1 -4.3 24.3 64 -10.1 13.9 -4.013 -0.158
23:50 1021 30.15 850 25.1 -3.8 25.2 62 -10.1 13.8 -3.588 -0.141
23:51 1021 30.15 850 25.1 -3.9 25 62 -10.2 13.7 -3.753 -0.148
23:52 1021 30.15 850 25.1 -4.1 24.6 63 -10.2 13.6 -3.951 -0.156
23:53 1021 30.15 850 25.1 -4.3 24.3 63 -10.3 13.4 -4.013 -0.158
23:54 1021 30.15 850 25.1 -4.4 24.1 63 -10.3 13.4 -4.099 -0.161
23:55 1021 30.15 850 25.1 -4.4 24.2 64 -10.3 13.5 -4.036 -0.159
23:56 1021 30.15 850 25.1 -4.1 24.5 63 -10.2 13.6 -3.878 -0.153
23:57 1021 30.15 850 25.1 -4.1 24.6 63 -10.2 13.7 -3.889 -0.153
23:58 1021 30.15 850 25.1 -4.3 24.2 63 -10.3 13.5 -3.98 -0.157
23:59 1021 30.15 850 25.1 -4.5 23.9 64 -10.3 13.5 -4.178 -0.164
24:00 1021 30.15 850 25.1 -4.6 23.8 65 -10.2 13.6 -4.24 -0.167